Observation data for Mertzon on 05/14/2018      Previous  Date  Next       Current Mesonet Observations  Soil Data  Daily Summary Page  Observations in Plain Language
KME1 140500Z 18009KT 25/18 A2994 RMK A01 T02510177  RH  063%=      5-min Rain = 0
KME1 140501Z 18008KT 25/18 A2994 RMK A01 T02510177  RH  063%=      5-min Rain = 0
KME1 140502Z 18007KT 25/18 A2994 RMK A01 T02520177  RH  063%=      5-min Rain = 0
KME1 140503Z 19006KT 25/18 A2994 RMK A01 T02510177  RH  063%=      5-min Rain = 0
KME1 140504Z 18006KT 25/18 A2994 RMK A01 T02510177  RH  064%=      5-min Rain = 0
KME1 140505Z 17006KT 25/18 A2994 RMK A01 T02510177  RH  064%=      5-min Rain = 0
KME1 140506Z 18005KT 25/18 A2994 RMK A01 T02500177  RH  064%=      5-min Rain = 0
KME1 140507Z 17006KT 25/18 A2994 RMK A01 T02500177  RH  064%=      5-min Rain = 0
KME1 140508Z 18006KT 25/18 A2994 RMK A01 T02500177  RH  064%=      5-min Rain = 0
KME1 140509Z 19006KT 25/18 A2994 RMK A01 T02500178  RH  064%=      5-min Rain = 0
KME1 140510Z 19006KT 25/18 A2994 RMK A01 T02490177  RH  064%=      5-min Rain = 0
KME1 140511Z 19005KT 25/18 A2994 RMK A01 T02490178  RH  064%=      5-min Rain = 0
KME1 140512Z 19006KT 25/18 A2994 RMK A01 T02490178  RH  064%=      5-min Rain = 0
KME1 140513Z 20006KT 25/18 A2994 RMK A01 T02490177  RH  064%=      5-min Rain = 0
KME1 140514Z 19007KT 25/18 A2994 RMK A01 T02500178  RH  064%=      5-min Rain = 0
KME1 140515Z 19005KT 25/18 A2994 RMK A01 T02500178  RH  064%=      5-min Rain = 0
KME1 140516Z 20005KT 25/18 A2994 RMK A01 T02500178  RH  064%=      5-min Rain = 0
KME1 140517Z 19005KT 25/18 A2994 RMK A01 T02500178  RH  064%=      5-min Rain = 0
KME1 140518Z 19005KT 25/18 A2994 RMK A01 T02490178  RH  064%=      5-min Rain = 0
KME1 140519Z 18006KT 25/18 A2994 RMK A01 T02490178  RH  065%=      5-min Rain = 0
KME1 140520Z 18006KT 25/18 A2994 RMK A01 T02480178  RH  065%=      5-min Rain = 0
KME1 140521Z 19006KT 25/18 A2994 RMK A01 T02480178  RH  065%=      5-min Rain = 0
KME1 140522Z 17006KT 25/18 A2994 RMK A01 T02480177  RH  065%=      5-min Rain = 0
KME1 140523Z 18006KT 25/18 A2994 RMK A01 T02490178  RH  065%=      5-min Rain = 0
KME1 140524Z 18006KT 25/18 A2994 RMK A01 T02480178  RH  065%=      5-min Rain = 0
KME1 140525Z 19006KT 25/18 A2994 RMK A01 T02480178  RH  065%=      5-min Rain = 0
KME1 140526Z 18006KT 25/18 A2994 RMK A01 T02480178  RH  065%=      5-min Rain = 0
KME1 140527Z 18006KT 25/18 A2994 RMK A01 T02470178  RH  065%=      5-min Rain = 0
KME1 140528Z 17006KT 25/18 A2994 RMK A01 T02470178  RH  066%=      5-min Rain = 0
KME1 140529Z 18006KT 25/18 A2993 RMK A01 T02470178  RH  066%=      5-min Rain = 0
KME1 140530Z 18006KT 25/18 A2993 RMK A01 T02470179  RH  066%=      5-min Rain = 0
KME1 140531Z 18006KT 25/18 A2993 RMK A01 T02470179  RH  066%=      5-min Rain = 0
KME1 140532Z 17006KT 25/18 A2993 RMK A01 T02470179  RH  066%=      5-min Rain = 0
KME1 140533Z 18008KT 25/18 A2993 RMK A01 T02470179  RH  066%=      5-min Rain = 0
KME1 140534Z 18006KT 25/18 A2993 RMK A01 T02470179  RH  066%=      5-min Rain = 0
KME1 140535Z 17007KT 25/18 A2993 RMK A01 T02470179  RH  066%=      5-min Rain = 0
KME1 140536Z 18007KT 25/18 A2993 RMK A01 T02460178  RH  066%=      5-min Rain = 0
KME1 140537Z 17006KT 25/18 A2993 RMK A01 T02470179  RH  066%=      5-min Rain = 0
KME1 140538Z 17005KT 25/18 A2993 RMK A01 T02460179  RH  066%=      5-min Rain = 0
KME1 140539Z 17006KT 25/18 A2993 RMK A01 T02460179  RH  066%=      5-min Rain = 0
KME1 140540Z 18007KT 25/18 A2993 RMK A01 T02450178  RH  066%=      5-min Rain = 0
KME1 140541Z 16006KT 25/18 A2993 RMK A01 T02450179  RH  066%=      5-min Rain = 0
KME1 140542Z 18007KT 24/18 A2993 RMK A01 T02440178  RH  067%=      5-min Rain = 0
KME1 140543Z 17007KT 24/18 A2993 RMK A01 T02440178  RH  067%=      5-min Rain = 0
KME1 140544Z 17006KT 24/18 A2993 RMK A01 T02440178  RH  067%=      5-min Rain = 0
KME1 140545Z 18005KT 24/18 A2993 RMK A01 T02440178  RH  067%=      5-min Rain = 0
KME1 140546Z 17005KT 24/18 A2993 RMK A01 T02440178  RH  067%=      5-min Rain = 0
KME1 140547Z 17006KT 24/18 A2993 RMK A01 T02440178  RH  067%=      5-min Rain = 0
KME1 140548Z 18007KT 24/18 A2993 RMK A01 T02430178  RH  067%=      5-min Rain = 0
KME1 140549Z 17005KT 24/18 A2993 RMK A01 T02440178  RH  067%=      5-min Rain = 0
KME1 140550Z 17006KT 24/18 A2993 RMK A01 T02440179  RH  067%=      5-min Rain = 0
KME1 140551Z 18006KT 24/18 A2993 RMK A01 T02440179  RH  067%=      5-min Rain = 0
KME1 140552Z 18006KT 24/18 A2993 RMK A01 T02440179  RH  067%=      5-min Rain = 0
KME1 140553Z 17005KT 24/18 A2993 RMK A01 T02440179  RH  067%=      5-min Rain = 0
KME1 140554Z 18004KT 24/18 A2993 RMK A01 T02430179  RH  067%=      5-min Rain = 0
KME1 140555Z 18005KT 24/18 A2993 RMK A01 T02430178  RH  067%=      5-min Rain = 0
KME1 140556Z 16006KT 24/18 A2993 RMK A01 T02420179  RH  068%=      5-min Rain = 0
KME1 140557Z 17006KT 24/18 A2993 RMK A01 T02420178  RH  068%=      5-min Rain = 0
KME1 140558Z 17006KT 24/18 A2993 RMK A01 T02420179  RH  068%=      5-min Rain = 0
KME1 140559Z 17005KT 24/18 A2993 RMK A01 T02420178  RH  068%=      5-min Rain = 0
KME1 140600Z 18004KT 24/18 A2993 RMK A01 T02430179  RH  068%=      5-min Rain = 0
KME1 140601Z 17005KT 24/18 A2993 RMK A01 T02420179  RH  068%=      5-min Rain = 0
KME1 140602Z 17004KT 24/18 A2993 RMK A01 T02420179  RH  068%=      5-min Rain = 0
KME1 140603Z 17004KT 24/18 A2993 RMK A01 T02410179  RH  068%=      5-min Rain = 0
KME1 140604Z 17004KT 24/18 A2993 RMK A01 T02410179  RH  068%=      5-min Rain = 0
KME1 140605Z 18004KT 24/18 A2993 RMK A01 T02410179  RH  068%=      5-min Rain = 0
KME1 140606Z 18004KT 24/18 A2993 RMK A01 T02410179  RH  068%=      5-min Rain = 0
KME1 140607Z 18005KT 24/18 A2993 RMK A01 T02400179  RH  068%=      5-min Rain = 0
KME1 140608Z 18005KT 24/18 A2993 RMK A01 T02400179  RH  068%=      5-min Rain = 0
KME1 140609Z 18005KT 24/18 A2993 RMK A01 T02400179  RH  068%=      5-min Rain = 0
KME1 140610Z 18005KT 24/18 A2993 RMK A01 T02400179  RH  069%=      5-min Rain = 0
KME1 140611Z 18005KT 24/18 A2993 RMK A01 T02400179  RH  069%=      5-min Rain = 0
KME1 140612Z 17005KT 24/18 A2993 RMK A01 T02400179  RH  069%=      5-min Rain = 0
KME1 140613Z 18005KT 24/18 A2993 RMK A01 T02400179  RH  069%=      5-min Rain = 0
KME1 140614Z 18004KT 24/18 A2993 RMK A01 T02400179  RH  069%=      5-min Rain = 0
KME1 140615Z 17005KT 24/18 A2993 RMK A01 T02400179  RH  069%=      5-min Rain = 0
KME1 140616Z 17005KT 24/18 A2993 RMK A01 T02400179  RH  069%=      5-min Rain = 0
KME1 140617Z 17004KT 24/18 A2993 RMK A01 T02400179  RH  069%=      5-min Rain = 0
KME1 140618Z 17004KT 24/18 A2993 RMK A01 T02400179  RH  069%=      5-min Rain = 0
KME1 140619Z 17006KT 24/18 A2993 RMK A01 T02390179  RH  069%=      5-min Rain = 0
KME1 140620Z 16004KT 24/18 A2993 RMK A01 T02390179  RH  069%=      5-min Rain = 0
KME1 140621Z 16005KT 24/18 A2993 RMK A01 T02380179  RH  069%=      5-min Rain = 0
KME1 140622Z 17005KT 24/18 A2993 RMK A01 T02380179  RH  069%=      5-min Rain = 0
KME1 140623Z 17004KT 24/18 A2993 RMK A01 T02380179  RH  069%=      5-min Rain = 0
KME1 140624Z 16004KT 24/18 A2993 RMK A01 T02380179  RH  070%=      5-min Rain = 0
KME1 140625Z 16003KT 24/18 A2993 RMK A01 T02380179  RH  070%=      5-min Rain = 0
KME1 140626Z 16003KT 24/18 A2993 RMK A01 T02370179  RH  070%=      5-min Rain = 0
KME1 140627Z 16003KT 24/18 A2993 RMK A01 T02360178  RH  070%=      5-min Rain = 0
KME1 140628Z 17002KT 24/18 A2993 RMK A01 T02360179  RH  070%=      5-min Rain = 0
KME1 140629Z 17003KT 24/18 A2993 RMK A01 T02360179  RH  070%=      5-min Rain = 0
KME1 140630Z 16002KT 24/18 A2993 RMK A01 T02360179  RH  070%=      5-min Rain = 0
KME1 140631Z 17003KT 24/18 A2993 RMK A01 T02360179  RH  070%=      5-min Rain = 0
KME1 140632Z 17003KT 24/18 A2993 RMK A01 T02360178  RH  070%=      5-min Rain = 0
KME1 140633Z 17003KT 24/18 A2993 RMK A01 T02350178  RH  070%=      5-min Rain = 0
KME1 140634Z 18003KT 24/18 A2993 RMK A01 T02350178  RH  071%=      5-min Rain = 0
KME1 140635Z 16003KT 23/18 A2993 RMK A01 T02340178  RH  071%=      5-min Rain = 0
KME1 140636Z 16004KT 23/18 A2993 RMK A01 T02340178  RH  071%=      5-min Rain = 0
KME1 140637Z 17004KT 23/18 A2994 RMK A01 T02340178  RH  071%=      5-min Rain = 0
KME1 140638Z 16004KT 23/18 A2994 RMK A01 T02340178  RH  071%=      5-min Rain = 0
KME1 140639Z 16002KT 23/18 A2993 RMK A01 T02340178  RH  071%=      5-min Rain = 0
KME1 140640Z 17004KT 23/18 A2993 RMK A01 T02330178  RH  071%=      5-min Rain = 0
KME1 140641Z 16004KT 23/18 A2993 RMK A01 T02330179  RH  071%=      5-min Rain = 0
KME1 140642Z 16004KT 23/18 A2993 RMK A01 T02330179  RH  071%=      5-min Rain = 0
KME1 140643Z 15004KT 23/18 A2993 RMK A01 T02330179  RH  071%=      5-min Rain = 0
KME1 140644Z 14004KT 23/18 A2993 RMK A01 T02330178  RH  071%=      5-min Rain = 0
KME1 140645Z 15004KT 23/18 A2993 RMK A01 T02330178  RH  071%=      5-min Rain = 0
KME1 140646Z 15003KT 23/18 A2993 RMK A01 T02330179  RH  071%=      5-min Rain = 0
KME1 140647Z 15004KT 23/18 A2993 RMK A01 T02330179  RH  072%=      5-min Rain = 0
KME1 140648Z 15004KT 23/18 A2993 RMK A01 T02320179  RH  072%=      5-min Rain = 0
KME1 140649Z 14005KT 23/18 A2993 RMK A01 T02320179  RH  072%=      5-min Rain = 0
KME1 140650Z 14005KT 23/18 A2993 RMK A01 T02320179  RH  072%=      5-min Rain = 0
KME1 140651Z 14004KT 23/18 A2993 RMK A01 T02320179  RH  072%=      5-min Rain = 0
KME1 140652Z 14004KT 23/18 A2993 RMK A01 T02330179  RH  072%=      5-min Rain = 0
KME1 140653Z 14004KT 23/18 A2993 RMK A01 T02320179  RH  072%=      5-min Rain = 0
KME1 140654Z 14004KT 23/18 A2993 RMK A01 T02320179  RH  072%=      5-min Rain = 0
KME1 140655Z 13003KT 23/18 A2993 RMK A01 T02330179  RH  072%=      5-min Rain = 0
KME1 140656Z 13004KT 23/18 A2993 RMK A01 T02320179  RH  072%=      5-min Rain = 0
KME1 140657Z 13004KT 23/18 A2993 RMK A01 T02320179  RH  072%=      5-min Rain = 0
KME1 140658Z 13004KT 23/18 A2993 RMK A01 T02320179  RH  072%=      5-min Rain = 0
KME1 140659Z 13004KT 23/18 A2993 RMK A01 T02320179  RH  072%=      5-min Rain = 0
KME1 140700Z 13004KT 23/18 A2993 RMK A01 T02320179  RH  072%=      5-min Rain = 0
KME1 140701Z 12004KT 23/18 A2993 RMK A01 T02320179  RH  072%=      5-min Rain = 0
KME1 140702Z 12004KT 23/18 A2993 RMK A01 T02320178  RH  072%=      5-min Rain = 0
KME1 140703Z 13004KT 23/18 A2993 RMK A01 T02310178  RH  072%=      5-min Rain = 0
KME1 140704Z 13005KT 23/18 A2993 RMK A01 T02320179  RH  072%=      5-min Rain = 0
KME1 140705Z 13004KT 23/18 A2993 RMK A01 T02310178  RH  072%=      5-min Rain = 0
KME1 140706Z 13005KT 23/18 A2993 RMK A01 T02310178  RH  072%=      5-min Rain = 0
KME1 140707Z 13004KT 23/18 A2993 RMK A01 T02310178  RH  072%=      5-min Rain = 0
KME1 140708Z 13004KT 23/18 A2993 RMK A01 T02310178  RH  072%=      5-min Rain = 0
KME1 140709Z 13004KT 23/18 A2993 RMK A01 T02310178  RH  072%=      5-min Rain = 0
KME1 140710Z 13005KT 23/18 A2993 RMK A01 T02300178  RH  073%=      5-min Rain = 0
KME1 140711Z 14005KT 23/18 A2993 RMK A01 T02300179  RH  073%=      5-min Rain = 0
KME1 140712Z 13004KT 23/18 A2993 RMK A01 T02300179  RH  073%=      5-min Rain = 0
KME1 140713Z 13005KT 23/18 A2993 RMK A01 T02300179  RH  073%=      5-min Rain = 0
KME1 140714Z 13004KT 23/18 A2993 RMK A01 T02300179  RH  073%=      5-min Rain = 0
KME1 140715Z 13004KT 23/18 A2993 RMK A01 T02310179  RH  073%=      5-min Rain = 0
KME1 140716Z 13005KT 23/18 A2993 RMK A01 T02300178  RH  072%=      5-min Rain = 0
KME1 140717Z 13004KT 23/18 A2993 RMK A01 T02300179  RH  072%=      5-min Rain = 0
KME1 140718Z 13005KT 23/18 A2993 RMK A01 T02300178  RH  072%=      5-min Rain = 0
KME1 140719Z 13006KT 23/18 A2993 RMK A01 T02310179  RH  072%=      5-min Rain = 0
KME1 140720Z 14004KT 23/18 A2993 RMK A01 T02310179  RH  072%=      5-min Rain = 0
KME1 140721Z 13005KT 23/18 A2993 RMK A01 T02310179  RH  072%=      5-min Rain = 0
KME1 140722Z 13006KT 23/18 A2993 RMK A01 T02320179  RH  072%=      5-min Rain = 0
KME1 140723Z 14005KT 23/18 A2993 RMK A01 T02320179  RH  072%=      5-min Rain = 0
KME1 140724Z 14005KT 23/18 A2993 RMK A01 T02330179  RH  072%=      5-min Rain = 0
KME1 140725Z 13005KT 23/18 A2993 RMK A01 T02330179  RH  072%=      5-min Rain = 0
KME1 140726Z 13004KT 23/18 A2993 RMK A01 T02330179  RH  072%=      5-min Rain = 0
KME1 140727Z 14005KT 23/18 A2993 RMK A01 T02330179  RH  072%=      5-min Rain = 0
KME1 140728Z 13004KT 23/18 A2993 RMK A01 T02330179  RH  072%=      5-min Rain = 0
KME1 140729Z 14004KT 23/18 A2993 RMK A01 T02330179  RH  072%=      5-min Rain = 0
KME1 140730Z 13004KT 23/18 A2993 RMK A01 T02330179  RH  072%=      5-min Rain = 0
KME1 140731Z 14005KT 23/18 A2993 RMK A01 T02330179  RH  072%=      5-min Rain = 0
KME1 140732Z 13005KT 23/18 A2993 RMK A01 T02330180  RH  072%=      5-min Rain = 0
KME1 140733Z 13004KT 23/18 A2993 RMK A01 T02330180  RH  072%=      5-min Rain = 0
KME1 140734Z 13004KT 23/18 A2993 RMK A01 T02330179  RH  072%=      5-min Rain = 0
KME1 140735Z 14005KT 23/18 A2993 RMK A01 T02330180  RH  072%=      5-min Rain = 0
KME1 140736Z 14005KT 23/18 A2993 RMK A01 T02330180  RH  072%=      5-min Rain = 0
KME1 140737Z 14004KT 23/18 A2993 RMK A01 T02330180  RH  072%=      5-min Rain = 0
KME1 140738Z 14003KT 23/18 A2993 RMK A01 T02340180  RH  072%=      5-min Rain = 0
KME1 140739Z 13004KT 23/18 A2993 RMK A01 T02340180  RH  072%=      5-min Rain = 0
KME1 140740Z 14003KT 23/18 A2993 RMK A01 T02340180  RH  072%=      5-min Rain = 0
KME1 140741Z 15004KT 23/18 A2993 RMK A01 T02330180  RH  072%=      5-min Rain = 0
KME1 140742Z 14003KT 23/18 A2993 RMK A01 T02330180  RH  072%=      5-min Rain = 0
KME1 140743Z 14003KT 23/18 A2993 RMK A01 T02330180  RH  072%=      5-min Rain = 0
KME1 140744Z 14003KT 23/18 A2993 RMK A01 T02330180  RH  072%=      5-min Rain = 0
KME1 140745Z 14004KT 23/18 A2993 RMK A01 T02320180  RH  072%=      5-min Rain = 0
KME1 140746Z 14004KT 23/18 A2993 RMK A01 T02320180  RH  072%=      5-min Rain = 0
KME1 140747Z 15003KT 23/18 A2993 RMK A01 T02320180  RH  072%=      5-min Rain = 0
KME1 140748Z 15004KT 23/18 A2993 RMK A01 T02320180  RH  072%=      5-min Rain = 0
KME1 140749Z 15003KT 23/18 A2993 RMK A01 T02320180  RH  072%=      5-min Rain = 0
KME1 140750Z 14004KT 23/18 A2993 RMK A01 T02320180  RH  072%=      5-min Rain = 0
KME1 140751Z 15004KT 23/18 A2993 RMK A01 T02320180  RH  072%=      5-min Rain = 0
KME1 140752Z 15004KT 23/18 A2993 RMK A01 T02320180  RH  073%=      5-min Rain = 0
KME1 140753Z 14004KT 23/18 A2993 RMK A01 T02320180  RH  073%=      5-min Rain = 0
KME1 140754Z 15004KT 23/18 A2993 RMK A01 T02320180  RH  073%=      5-min Rain = 0
KME1 140755Z 15003KT 23/18 A2993 RMK A01 T02310180  RH  073%=      5-min Rain = 0
KME1 140756Z 14004KT 23/18 A2993 RMK A01 T02310180  RH  073%=      5-min Rain = 0
KME1 140757Z 14004KT 23/18 A2993 RMK A01 T02310180  RH  073%=      5-min Rain = 0
KME1 140758Z 15004KT 23/18 A2994 RMK A01 T02310180  RH  073%=      5-min Rain = 0
KME1 140759Z 14003KT 23/18 A2994 RMK A01 T02310180  RH  073%=      5-min Rain = 0
KME1 140800Z 14004KT 23/18 A2994 RMK A01 T02310180  RH  073%=      5-min Rain = 0
KME1 140801Z 14004KT 23/18 A2994 RMK A01 T02310180  RH  073%=      5-min Rain = 0
KME1 140802Z 15004KT 23/18 A2994 RMK A01 T02310181  RH  073%=      5-min Rain = 0
KME1 140803Z 16004KT 23/18 A2994 RMK A01 T02310181  RH  073%=      5-min Rain = 0
KME1 140804Z 14003KT 23/18 A2994 RMK A01 T02310181  RH  073%=      5-min Rain = 0
KME1 140805Z 14004KT 23/18 A2994 RMK A01 T02310181  RH  074%=      5-min Rain = 0
KME1 140806Z 15003KT 23/18 A2994 RMK A01 T02310182  RH  074%=      5-min Rain = 0
KME1 140807Z 14003KT 23/18 A2994 RMK A01 T02310181  RH  074%=      5-min Rain = 0
KME1 140808Z 15004KT 23/18 A2994 RMK A01 T02310181  RH  074%=      5-min Rain = 0
KME1 140809Z 14004KT 23/18 A2994 RMK A01 T02310181  RH  074%=      5-min Rain = 0
KME1 140810Z 14003KT 23/18 A2993 RMK A01 T02310181  RH  074%=      5-min Rain = 0
KME1 140811Z 14003KT 23/18 A2993 RMK A01 T02310181  RH  074%=      5-min Rain = 0
KME1 140812Z 14003KT 23/18 A2994 RMK A01 T02310182  RH  074%=      5-min Rain = 0
KME1 140813Z 15003KT 23/18 A2994 RMK A01 T02310181  RH  074%=      5-min Rain = 0
KME1 140814Z 15004KT 23/18 A2994 RMK A01 T02300181  RH  074%=      5-min Rain = 0
KME1 140815Z 16003KT 23/18 A2994 RMK A01 T02300182  RH  074%=      5-min Rain = 0
KME1 140816Z 15003KT 23/18 A2994 RMK A01 T02300182  RH  074%=      5-min Rain = 0
KME1 140817Z 16002KT 23/18 A2994 RMK A01 T02290181  RH  074%=      5-min Rain = 0
KME1 140818Z 14003KT 23/18 A2994 RMK A01 T02290182  RH  074%=      5-min Rain = 0
KME1 140819Z 15004KT 23/18 A2994 RMK A01 T02290182  RH  075%=      5-min Rain = 0
KME1 140820Z 14003KT 23/18 A2994 RMK A01 T02290182  RH  075%=      5-min Rain = 0
KME1 140821Z 14003KT 23/18 A2994 RMK A01 T02290182  RH  075%=      5-min Rain = 0
KME1 140822Z 15005KT 23/18 A2994 RMK A01 T02290182  RH  075%=      5-min Rain = 0
KME1 140823Z 14004KT 23/18 A2994 RMK A01 T02290182  RH  075%=      5-min Rain = 0
KME1 140824Z 15005KT 23/18 A2994 RMK A01 T02300183  RH  075%=      5-min Rain = 0
KME1 140825Z 15004KT 23/18 A2994 RMK A01 T02300183  RH  075%=      5-min Rain = 0
KME1 140826Z 15003KT 23/18 A2994 RMK A01 T02300183  RH  075%=      5-min Rain = 0
KME1 140827Z 15004KT 23/18 A2994 RMK A01 T02300183  RH  075%=      5-min Rain = 0
KME1 140828Z 14004KT 23/18 A2994 RMK A01 T02300183  RH  075%=      5-min Rain = 0
KME1 140829Z 15004KT 23/18 A2994 RMK A01 T02300184  RH  075%=      5-min Rain = 0
KME1 140830Z 14005KT 23/18 A2994 RMK A01 T02300184  RH  075%=      5-min Rain = 0
KME1 140831Z 15004KT 23/18 A2994 RMK A01 T02300184  RH  075%=      5-min Rain = 0
KME1 140832Z 15005KT 23/18 A2994 RMK A01 T02300184  RH  075%=      5-min Rain = 0
KME1 140833Z 15005KT 23/19 A2994 RMK A01 T02310185  RH  075%=      5-min Rain = 0
KME1 140834Z 14005KT 23/18 A2994 RMK A01 T02310184  RH  075%=      5-min Rain = 0
KME1 140835Z 13006KT 23/19 A2994 RMK A01 T02310185  RH  075%=      5-min Rain = 0
KME1 140836Z 15006KT 23/18 A2994 RMK A01 T02310184  RH  075%=      5-min Rain = 0
KME1 140837Z 14006KT 23/19 A2994 RMK A01 T02310185  RH  075%=      5-min Rain = 0
KME1 140838Z 14006KT 23/19 A2994 RMK A01 T02310185  RH  075%=      5-min Rain = 0
KME1 140839Z 14005KT 23/19 A2994 RMK A01 T02310185  RH  075%=      5-min Rain = 0
KME1 140840Z 14006KT 23/19 A2994 RMK A01 T02310185  RH  075%=      5-min Rain = 0
KME1 140841Z 14007KT 23/19 A2993 RMK A01 T02310186  RH  075%=      5-min Rain = 0
KME1 140842Z 14006KT 23/19 A2993 RMK A01 T02310186  RH  076%=      5-min Rain = 0
KME1 140843Z 14006KT 23/19 A2993 RMK A01 T02310186  RH  076%=      5-min Rain = 0
KME1 140844Z 14006KT 23/19 A2993 RMK A01 T02310187  RH  076%=      5-min Rain = 0
KME1 140845Z 15007KT 23/19 A2993 RMK A01 T02310187  RH  076%=      5-min Rain = 0
KME1 140846Z 15007KT 23/19 A2993 RMK A01 T02310187  RH  076%=      5-min Rain = 0
KME1 140847Z 14008KT 23/19 A2993 RMK A01 T02310187  RH  076%=      5-min Rain = 0
KME1 140848Z 15007KT 23/19 A2993 RMK A01 T02320187  RH  076%=      5-min Rain = 0
KME1 140849Z 15006KT 23/19 A2993 RMK A01 T02320187  RH  076%=      5-min Rain = 0
KME1 140850Z 15006KT 23/19 A2993 RMK A01 T02320188  RH  076%=      5-min Rain = 0
KME1 140851Z 15006KT 23/19 A2993 RMK A01 T02320188  RH  076%=      5-min Rain = 0
KME1 140852Z 15006KT 23/19 A2993 RMK A01 T02320188  RH  076%=      5-min Rain = 0
KME1 140853Z 15006KT 23/19 A2993 RMK A01 T02320188  RH  076%=      5-min Rain = 0
KME1 140854Z 15007KT 23/19 A2994 RMK A01 T02320189  RH  077%=      5-min Rain = 0
KME1 140855Z 14008KT 23/19 A2994 RMK A01 T02320189  RH  077%=      5-min Rain = 0
KME1 140856Z 15008KT 23/19 A2994 RMK A01 T02320189  RH  077%=      5-min Rain = 0
KME1 140857Z 15007KT 23/19 A2994 RMK A01 T02330190  RH  077%=      5-min Rain = 0
KME1 140858Z 15006KT 23/19 A2994 RMK A01 T02330190  RH  077%=      5-min Rain = 0
KME1 140859Z 15007KT 23/19 A2994 RMK A01 T02330190  RH  077%=      5-min Rain = 0
KME1 140900Z 16009KT 23/19 A2994 RMK A01 T02330190  RH  077%=      5-min Rain = 0
KME1 140901Z 15007KT 23/19 A2994 RMK A01 T02340191  RH  076%=      5-min Rain = 0
KME1 140902Z 14008KT 24/19 A2994 RMK A01 T02350191  RH  076%=      5-min Rain = 0
KME1 140903Z 14007KT 24/19 A2994 RMK A01 T02350191  RH  076%=      5-min Rain = 0
KME1 140904Z 15008KT 24/19 A2994 RMK A01 T02350191  RH  076%=      5-min Rain = 0
KME1 140905Z 14007KT 24/19 A2994 RMK A01 T02350191  RH  076%=      5-min Rain = 0
KME1 140906Z 14009KT 24/19 A2994 RMK A01 T02350191  RH  076%=      5-min Rain = 0
KME1 140907Z 15006KT 24/19 A2994 RMK A01 T02350191  RH  076%=      5-min Rain = 0
KME1 140908Z 14007KT 24/19 A2994 RMK A01 T02350191  RH  076%=      5-min Rain = 0
KME1 140909Z 14006KT 24/19 A2993 RMK A01 T02350191  RH  076%=      5-min Rain = 0
KME1 140910Z 15007KT 24/19 A2993 RMK A01 T02350191  RH  076%=      5-min Rain = 0
KME1 140911Z 14008KT 24/19 A2994 RMK A01 T02350191  RH  077%=      5-min Rain = 0
KME1 140912Z 15007KT 24/19 A2994 RMK A01 T02350192  RH  077%=      5-min Rain = 0
KME1 140913Z 15007KT 24/19 A2994 RMK A01 T02350192  RH  077%=      5-min Rain = 0
KME1 140914Z 14008KT 24/19 A2994 RMK A01 T02350192  RH  077%=      5-min Rain = 0
KME1 140915Z 15007KT 24/19 A2994 RMK A01 T02350192  RH  077%=      5-min Rain = 0
KME1 140916Z 15005KT 24/19 A2994 RMK A01 T02350192  RH  077%=      5-min Rain = 0
KME1 140917Z 16005KT 24/19 A2994 RMK A01 T02350192  RH  077%=      5-min Rain = 0
KME1 140918Z 15005KT 24/19 A2994 RMK A01 T02350192  RH  077%=      5-min Rain = 0
KME1 140919Z 15007KT 24/19 A2994 RMK A01 T02350192  RH  077%=      5-min Rain = 0
KME1 140920Z 16007KT 24/19 A2994 RMK A01 T02350193  RH  077%=      5-min Rain = 0
KME1 140921Z 16006KT 24/19 A2994 RMK A01 T02350193  RH  077%=      5-min Rain = 0
KME1 140922Z 16006KT 24/19 A2994 RMK A01 T02350193  RH  077%=      5-min Rain = 0
KME1 140923Z 15006KT 24/19 A2994 RMK A01 T02350193  RH  077%=      5-min Rain = 0
KME1 140924Z 16008KT 24/19 A2994 RMK A01 T02350193  RH  077%=      5-min Rain = 0
KME1 140925Z 15007KT 24/19 A2994 RMK A01 T02360194  RH  077%=      5-min Rain = 0
KME1 140926Z 15007KT 24/19 A2994 RMK A01 T02360194  RH  077%=      5-min Rain = 0
KME1 140927Z 15006KT 24/19 A2994 RMK A01 T02370194  RH  077%=      5-min Rain = 0
KME1 140928Z 15006KT 24/19 A2994 RMK A01 T02370194  RH  077%=      5-min Rain = 0
KME1 140929Z 16005KT 24/19 A2994 RMK A01 T02370194  RH  077%=      5-min Rain = 0
KME1 140930Z 15006KT 24/19 A2994 RMK A01 T02370194  RH  077%=      5-min Rain = 0
KME1 140931Z 16007KT 24/19 A2994 RMK A01 T02370194  RH  077%=      5-min Rain = 0
KME1 140932Z 15004KT 24/19 A2994 RMK A01 T02370194  RH  077%=      5-min Rain = 0
KME1 140933Z 16004KT 24/19 A2994 RMK A01 T02370194  RH  077%=      5-min Rain = 0
KME1 140934Z 15009KT 24/19 A2994 RMK A01 T02370194  RH  077%=      5-min Rain = 0
KME1 140935Z 16009KT 24/19 A2994 RMK A01 T02370194  RH  077%=      5-min Rain = 0
KME1 140936Z 15008KT 24/19 A2994 RMK A01 T02370194  RH  077%=      5-min Rain = 0
KME1 140937Z 16008KT 24/19 A2994 RMK A01 T02370194  RH  077%=      5-min Rain = 0
KME1 140938Z 16008KT 24/19 A2994 RMK A01 T02380194  RH  077%=      5-min Rain = 0
KME1 140939Z 16006KT 24/19 A2994 RMK A01 T02380194  RH  077%=      5-min Rain = 0
KME1 140940Z 16008G13KT 24/19 A2994 RMK A01 T02380194  RH  077%=      5-min Rain = 0
KME1 140941Z 17008KT 24/20 A2994 RMK A01 T02380195  RH  077%=      5-min Rain = 0
KME1 140942Z 16007KT 24/20 A2994 RMK A01 T02380195  RH  077%=      5-min Rain = 0
KME1 140943Z 15007KT 24/20 A2994 RMK A01 T02390195  RH  076%=      5-min Rain = 0
KME1 140944Z 15006KT 24/20 A2994 RMK A01 T02390195  RH  076%=      5-min Rain = 0
KME1 140945Z 15007KT 24/20 A2994 RMK A01 T02390195  RH  076%=      5-min Rain = 0
KME1 140946Z 15010KT 24/20 A2994 RMK A01 T02390195  RH  076%=      5-min Rain = 0
KME1 140947Z 16010KT 24/20 A2994 RMK A01 T02390195  RH  076%=      5-min Rain = 0
KME1 140948Z 16008KT 24/20 A2994 RMK A01 T02390195  RH  076%=      5-min Rain = 0
KME1 140949Z 16007KT 24/20 A2994 RMK A01 T02390195  RH  076%=      5-min Rain = 0
KME1 140950Z 16006KT 24/20 A2994 RMK A01 T02390195  RH  076%=      5-min Rain = 0
KME1 140951Z 15008KT 24/20 A2995 RMK A01 T02400195  RH  076%=      5-min Rain = 0
KME1 140952Z 15007KT 24/20 A2995 RMK A01 T02400195  RH  076%=      5-min Rain = 0
KME1 140953Z 16007KT 24/20 A2995 RMK A01 T02400195  RH  076%=      5-min Rain = 0
KME1 140954Z 17008KT 24/20 A2995 RMK A01 T02400195  RH  076%=      5-min Rain = 0
KME1 140955Z 16008G13KT 24/20 A2995 RMK A01 T02400195  RH  076%=      5-min Rain = 0
KME1 140956Z 15011KT 24/20 A2995 RMK A01 T02400195  RH  076%=      5-min Rain = 0
KME1 140957Z 16011KT 24/20 A2995 RMK A01 T02400196  RH  076%=      5-min Rain = 0
KME1 140958Z 16012KT 24/20 A2995 RMK A01 T02410196  RH  076%=      5-min Rain = 0
KME1 140959Z 15009KT 24/20 A2995 RMK A01 T02410196  RH  076%=      5-min Rain = 0
KME1 141000Z 15008KT 24/20 A2995 RMK A01 T02410196  RH  076%=      5-min Rain = 0
KME1 141001Z 16009KT 24/20 A2995 RMK A01 T02400196  RH  076%=      5-min Rain = 0
KME1 141002Z 16009KT 24/20 A2995 RMK A01 T02400196  RH  076%=      5-min Rain = 0
KME1 141003Z 17010G15KT 24/20 A2995 RMK A01 T02400196  RH  076%=      5-min Rain = 0
KME1 141004Z 16011KT 24/20 A2995 RMK A01 T02400196  RH  076%=      5-min Rain = 0
KME1 141005Z 17011KT 24/20 A2995 RMK A01 T02400195  RH  076%=      5-min Rain = 0
KME1 141006Z 17010KT 24/20 A2995 RMK A01 T02400196  RH  076%=      5-min Rain = 0
KME1 141007Z 16007KT 24/20 A2995 RMK A01 T02400195  RH  076%=      5-min Rain = 0
KME1 141008Z 16007KT 24/20 A2995 RMK A01 T02400195  RH  076%=      5-min Rain = 0
KME1 141009Z 15009G14KT 24/20 A2995 RMK A01 T02400195  RH  076%=      5-min Rain = 0
KME1 141010Z 16012KT 24/20 A2995 RMK A01 T02400195  RH  076%=      5-min Rain = 0
KME1 141011Z 16009KT 24/20 A2995 RMK A01 T02400195  RH  076%=      5-min Rain = 0
KME1 141012Z 16009KT 24/20 A2995 RMK A01 T02400195  RH  076%=      5-min Rain = 0
KME1 141013Z 16010KT 24/20 A2995 RMK A01 T02390195  RH  076%=      5-min Rain = 0
KME1 141014Z 17009KT 24/20 A2995 RMK A01 T02390195  RH  076%=      5-min Rain = 0
KME1 141015Z 16009KT 24/20 A2995 RMK A01 T02390195  RH  076%=      5-min Rain = 0
KME1 141016Z 16010KT 24/20 A2994 RMK A01 T02390195  RH  076%=      5-min Rain = 0
KME1 141017Z 17012G17KT 24/20 A2994 RMK A01 T02390195  RH  076%=      5-min Rain = 0
KME1 141018Z 17013G18KT 24/19 A2994 RMK A01 T02390194  RH  076%=      5-min Rain = 0
KME1 141019Z 16011KT 24/19 A2994 RMK A01 T02390194  RH  076%=      5-min Rain = 0
KME1 141020Z 15010KT 24/19 A2994 RMK A01 T02390194  RH  076%=      5-min Rain = 0
KME1 141021Z 16007KT 24/19 A2994 RMK A01 T02390194  RH  076%=      5-min Rain = 0
KME1 141022Z 17008KT 24/19 A2995 RMK A01 T02390194  RH  076%=      5-min Rain = 0
KME1 141023Z 16011KT 24/19 A2994 RMK A01 T02380194  RH  076%=      5-min Rain = 0
KME1 141024Z 17009KT 24/19 A2994 RMK A01 T02380194  RH  076%=      5-min Rain = 0
KME1 141025Z 17008KT 24/19 A2995 RMK A01 T02380194  RH  076%=      5-min Rain = 0
KME1 141026Z 16010KT 24/19 A2995 RMK A01 T02380194  RH  076%=      5-min Rain = 0
KME1 141027Z 16009KT 24/19 A2995 RMK A01 T02380194  RH  076%=      5-min Rain = 0
KME1 141028Z 16009KT 24/19 A2995 RMK A01 T02380194  RH  076%=      5-min Rain = 0
KME1 141029Z 16008KT 24/19 A2995 RMK A01 T02380194  RH  076%=      5-min Rain = 0
KME1 141030Z 16009KT 24/19 A2995 RMK A01 T02380194  RH  076%=      5-min Rain = 0
KME1 141031Z 15008KT 24/19 A2995 RMK A01 T02380194  RH  077%=      5-min Rain = 0
KME1 141032Z 14007KT 24/19 A2995 RMK A01 T02380194  RH  076%=      5-min Rain = 0
KME1 141033Z 15008KT 24/19 A2995 RMK A01 T02380194  RH  076%=      5-min Rain = 0
KME1 141034Z 17006KT 24/19 A2995 RMK A01 T02370194  RH  077%=      5-min Rain = 0
KME1 141035Z 15011KT 24/19 A2995 RMK A01 T02370194  RH  077%=      5-min Rain = 0
KME1 141036Z 16007KT 24/19 A2995 RMK A01 T02370194  RH  076%=      5-min Rain = 0
KME1 141037Z 16011KT 24/19 A2995 RMK A01 T02370194  RH  076%=      5-min Rain = 0
KME1 141038Z 16015KT 24/19 A2995 RMK A01 T02370193  RH  077%=      5-min Rain = 0
KME1 141039Z 17012KT 24/19 A2995 RMK A01 T02370193  RH  076%=      5-min Rain = 0
KME1 141040Z 17011KT 24/19 A2995 RMK A01 T02370193  RH  076%=      5-min Rain = 0
KME1 141041Z 16009KT 24/19 A2995 RMK A01 T02370193  RH  076%=      5-min Rain = 0
KME1 141042Z 17009KT 24/19 A2995 RMK A01 T02370193  RH  076%=      5-min Rain = 0
KME1 141043Z 17010KT 24/19 A2995 RMK A01 T02370193  RH  077%=      5-min Rain = 0
KME1 141044Z 16008KT 24/19 A2995 RMK A01 T02360193  RH  077%=      5-min Rain = 0
KME1 141045Z 16011KT 24/19 A2995 RMK A01 T02360193  RH  077%=      5-min Rain = 0
KME1 141046Z 17011G16KT 24/19 A2995 RMK A01 T02360193  RH  077%=      5-min Rain = 0
KME1 141047Z 17012KT 24/19 A2995 RMK A01 T02360193  RH  077%=      5-min Rain = 0
KME1 141048Z 16012KT 24/19 A2995 RMK A01 T02360193  RH  077%=      5-min Rain = 0
KME1 141049Z 17016KT 24/19 A2995 RMK A01 T02360193  RH  077%=      5-min Rain = 0
KME1 141050Z 17015KT 24/19 A2995 RMK A01 T02360192  RH  076%=      5-min Rain = 0
KME1 141051Z 16010KT 24/19 A2995 RMK A01 T02360192  RH  076%=      5-min Rain = 0
KME1 141052Z 17009KT 24/19 A2995 RMK A01 T02360192  RH  076%=      5-min Rain = 0
KME1 141053Z 17012KT 24/19 A2995 RMK A01 T02360192  RH  076%=      5-min Rain = 0
KME1 141054Z 17012KT 24/19 A2995 RMK A01 T02360192  RH  076%=      5-min Rain = 0
KME1 141055Z 17008KT 24/19 A2995 RMK A01 T02360193  RH  076%=      5-min Rain = 0
KME1 141056Z 17011KT 24/19 A2995 RMK A01 T02360192  RH  077%=      5-min Rain = 0
KME1 141057Z 17011KT 24/19 A2995 RMK A01 T02350192  RH  077%=      5-min Rain = 0
KME1 141058Z 16010KT 24/19 A2995 RMK A01 T02350192  RH  077%=      5-min Rain = 0
KME1 141059Z 16011KT 24/19 A2995 RMK A01 T02350192  RH  077%=      5-min Rain = 0
KME1 141100Z 16012KT 24/19 A2995 RMK A01 T02350192  RH  077%=      5-min Rain = 0
KME1 141101Z 17010KT 24/19 A2995 RMK A01 T02350192  RH  077%=      5-min Rain = 0
KME1 141102Z 17009KT 24/19 A2995 RMK A01 T02350192  RH  077%=      5-min Rain = 0
KME1 141103Z 17008KT 24/19 A2995 RMK A01 T02350192  RH  077%=      5-min Rain = 0
KME1 141104Z 17009KT 24/19 A2995 RMK A01 T02350192  RH  077%=      5-min Rain = 0
KME1 141105Z 17009KT 24/19 A2995 RMK A01 T02350192  RH  077%=      5-min Rain = 0
KME1 141106Z 16009KT 23/19 A2995 RMK A01 T02340192  RH  077%=      5-min Rain = 0
KME1 141107Z 17008KT 23/19 A2996 RMK A01 T02340192  RH  077%=      5-min Rain = 0
KME1 141108Z 16009KT 23/19 A2996 RMK A01 T02340192  RH  077%=      5-min Rain = 0
KME1 141109Z 16008KT 23/19 A2996 RMK A01 T02340192  RH  077%=      5-min Rain = 0
KME1 141110Z 17008KT 23/19 A2996 RMK A01 T02340192  RH  077%=      5-min Rain = 0
KME1 141111Z 17007KT 23/19 A2996 RMK A01 T02340192  RH  077%=      5-min Rain = 0
KME1 141112Z 17005KT 23/19 A2996 RMK A01 T02330192  RH  077%=      5-min Rain = 0
KME1 141113Z 16007KT 23/19 A2996 RMK A01 T02330192  RH  077%=      5-min Rain = 0
KME1 141114Z 17008KT 23/19 A2996 RMK A01 T02330192  RH  078%=      5-min Rain = 0
KME1 141115Z 16006KT 23/19 A2996 RMK A01 T02330192  RH  078%=      5-min Rain = 0
KME1 141116Z 16006KT 23/19 A2996 RMK A01 T02330192  RH  078%=      5-min Rain = 0
KME1 141117Z 16006KT 23/19 A2996 RMK A01 T02320192  RH  078%=      5-min Rain = 0
KME1 141118Z 16007KT 23/19 A2996 RMK A01 T02320192  RH  078%=      5-min Rain = 0
KME1 141119Z 16008KT 23/19 A2996 RMK A01 T02320192  RH  078%=      5-min Rain = 0
KME1 141120Z 17008KT 23/19 A2996 RMK A01 T02320192  RH  078%=      5-min Rain = 0
KME1 141121Z 15008KT 23/19 A2996 RMK A01 T02320192  RH  078%=      5-min Rain = 0
KME1 141122Z 16008KT 23/19 A2996 RMK A01 T02320192  RH  078%=      5-min Rain = 0
KME1 141123Z 15010KT 23/19 A2996 RMK A01 T02320192  RH  078%=      5-min Rain = 0
KME1 141124Z 17008KT 23/19 A2996 RMK A01 T02320192  RH  078%=      5-min Rain = 0
KME1 141125Z 16006KT 23/19 A2996 RMK A01 T02320192  RH  078%=      5-min Rain = 0
KME1 141126Z 16009KT 23/19 A2996 RMK A01 T02320192  RH  078%=      5-min Rain = 0
KME1 141127Z 17008KT 23/19 A2996 RMK A01 T02320192  RH  078%=      5-min Rain = 0
KME1 141128Z 16006KT 23/19 A2996 RMK A01 T02320192  RH  078%=      5-min Rain = 0
KME1 141129Z 17006KT 23/19 A2996 RMK A01 T02310192  RH  078%=      5-min Rain = 0
KME1 141130Z 16005KT 23/19 A2996 RMK A01 T02310192  RH  078%=      5-min Rain = 0
KME1 141131Z 15005KT 23/19 A2996 RMK A01 T02310192  RH  079%=      5-min Rain = 0
KME1 141132Z 16007KT 23/19 A2996 RMK A01 T02300192  RH  079%=      5-min Rain = 0
KME1 141133Z 16009KT 23/19 A2996 RMK A01 T02300192  RH  079%=      5-min Rain = 0
KME1 141134Z 16007KT 23/19 A2996 RMK A01 T02300191  RH  079%=      5-min Rain = 0
KME1 141135Z 16006KT 23/19 A2996 RMK A01 T02300192  RH  079%=      5-min Rain = 0
KME1 141136Z 16008KT 23/19 A2996 RMK A01 T02300191  RH  079%=      5-min Rain = 0
KME1 141137Z 15008KT 23/19 A2996 RMK A01 T02300192  RH  079%=      5-min Rain = 0
KME1 141138Z 17007KT 23/19 A2996 RMK A01 T02300192  RH  079%=      5-min Rain = 0
KME1 141139Z 17009KT 23/19 A2996 RMK A01 T02300192  RH  079%=      5-min Rain = 0
KME1 141140Z 18008KT 23/19 A2996 RMK A01 T02300192  RH  079%=      5-min Rain = 0
KME1 141141Z 16008KT 23/19 A2996 RMK A01 T02300192  RH  079%=      5-min Rain = 0
KME1 141142Z 16009KT 23/19 A2996 RMK A01 T02290191  RH  079%=      5-min Rain = 0
KME1 141143Z 18006KT 23/19 A2996 RMK A01 T02300192  RH  079%=      5-min Rain = 0
KME1 141144Z 16008KT 23/19 A2996 RMK A01 T02290192  RH  079%=      5-min Rain = 0
KME1 141145Z 17010KT 23/19 A2996 RMK A01 T02290192  RH  079%=      5-min Rain = 0
KME1 141146Z 16007KT 23/19 A2996 RMK A01 T02290191  RH  079%=      5-min Rain = 0
KME1 141147Z 17009G14KT 23/19 A2996 RMK A01 T02290192  RH  079%=      5-min Rain = 0
KME1 141148Z 17007G12KT 23/19 A2996 RMK A01 T02290192  RH  079%=      5-min Rain = 0
KME1 141149Z 17006KT 23/19 A2996 RMK A01 T02290191  RH  079%=      5-min Rain = 0
KME1 141150Z 16007KT 23/19 A2996 RMK A01 T02290192  RH  079%=      5-min Rain = 0
KME1 141151Z 17008KT 23/19 A2996 RMK A01 T02290192  RH  079%=      5-min Rain = 0
KME1 141152Z 17007KT 23/19 A2996 RMK A01 T02290192  RH  080%=      5-min Rain = 0
KME1 141153Z 17006KT 23/19 A2996 RMK A01 T02290192  RH  080%=      5-min Rain = 0
KME1 141154Z 17006KT 23/19 A2996 RMK A01 T02290191  RH  080%=      5-min Rain = 0
KME1 141155Z 16008KT 23/19 A2996 RMK A01 T02290192  RH  080%=      5-min Rain = 0
KME1 141156Z 17009KT 23/19 A2996 RMK A01 T02290192  RH  080%=      5-min Rain = 0
KME1 141157Z 17008KT 23/19 A2996 RMK A01 T02290192  RH  080%=      5-min Rain = 0
KME1 141158Z 16008KT 23/19 A2996 RMK A01 T02290191  RH  080%=      5-min Rain = 0
KME1 141159Z 17006KT 23/19 A2996 RMK A01 T02290191  RH  079%=      5-min Rain = 0
KME1 141200Z 17007KT 23/19 A2996 RMK A01 T02290191  RH  080%=      5-min Rain = 0
KME1 141201Z 17005KT 23/19 A2996 RMK A01 T02290191  RH  079%=      5-min Rain = 0
KME1 141202Z 17006KT 23/19 A2996 RMK A01 T02290192  RH  080%=      5-min Rain = 0
KME1 141203Z 17006KT 23/19 A2996 RMK A01 T02290192  RH  080%=      5-min Rain = 0
KME1 141204Z 18006KT 23/19 A2996 RMK A01 T02290192  RH  080%=      5-min Rain = 0
KME1 141205Z 17006KT 23/19 A2996 RMK A01 T02280191  RH  080%=      5-min Rain = 0
KME1 141206Z 17005KT 23/19 A2997 RMK A01 T02280191  RH  080%=      5-min Rain = 0
KME1 141207Z 18005KT 23/19 A2997 RMK A01 T02280192  RH  080%=      5-min Rain = 0
KME1 141208Z 17005KT 23/19 A2997 RMK A01 T02280192  RH  080%=      5-min Rain = 0
KME1 141209Z 17007KT 23/19 A2997 RMK A01 T02280192  RH  080%=      5-min Rain = 0
KME1 141210Z 17009KT 23/19 A2997 RMK A01 T02280192  RH  080%=      5-min Rain = 0
KME1 141211Z 17007KT 23/19 A2997 RMK A01 T02280192  RH  080%=      5-min Rain = 0
KME1 141212Z 17007KT 23/19 A2997 RMK A01 T02290192  RH  080%=      5-min Rain = 0
KME1 141213Z 17007KT 23/19 A2997 RMK A01 T02280192  RH  080%=      5-min Rain = 0
KME1 141214Z 17006KT 23/19 A2997 RMK A01 T02290192  RH  080%=      5-min Rain = 0
KME1 141215Z 17006KT 23/19 A2997 RMK A01 T02290192  RH  080%=      5-min Rain = 0
KME1 141216Z 17008KT 23/19 A2997 RMK A01 T02290192  RH  080%=      5-min Rain = 0
KME1 141217Z 17007KT 23/19 A2997 RMK A01 T02290192  RH  080%=      5-min Rain = 0
KME1 141218Z 17006KT 23/19 A2997 RMK A01 T02280192  RH  080%=      5-min Rain = 0
KME1 141219Z 18007KT 23/19 A2997 RMK A01 T02290192  RH  080%=      5-min Rain = 0
KME1 141220Z 18006KT 23/19 A2997 RMK A01 T02290192  RH  080%=      5-min Rain = 0
KME1 141221Z 18010KT 23/19 A2997 RMK A01 T02290192  RH  080%=      5-min Rain = 0
KME1 141222Z 18009KT 23/19 A2997 RMK A01 T02290192  RH  079%=      5-min Rain = 0
KME1 141223Z 17007KT 23/19 A2997 RMK A01 T02290192  RH  079%=      5-min Rain = 0
KME1 141224Z 18007KT 23/19 A2997 RMK A01 T02300192  RH  079%=      5-min Rain = 0
KME1 141225Z 17007KT 23/19 A2997 RMK A01 T02300192  RH  079%=      5-min Rain = 0
KME1 141226Z 17007KT 23/19 A2997 RMK A01 T02290192  RH  079%=      5-min Rain = 0
KME1 141227Z 17009KT 23/19 A2997 RMK A01 T02300192  RH  079%=      5-min Rain = 0
KME1 141228Z 18009KT 23/19 A2997 RMK A01 T02300192  RH  079%=      5-min Rain = 0
KME1 141229Z 18008G13KT 23/19 A2997 RMK A01 T02300192  RH  079%=      5-min Rain = 0
KME1 141230Z 18009KT 23/19 A2997 RMK A01 T02300192  RH  079%=      5-min Rain = 0
KME1 141231Z 19008KT 23/19 A2997 RMK A01 T02300192  RH  079%=      5-min Rain = 0
KME1 141232Z 17007KT 23/19 A2997 RMK A01 T02300192  RH  079%=      5-min Rain = 0
KME1 141233Z 18007KT 23/19 A2997 RMK A01 T02300192  RH  079%=      5-min Rain = 0
KME1 141234Z 17008KT 23/19 A2997 RMK A01 T02310192  RH  079%=      5-min Rain = 0
KME1 141235Z 18012KT 23/19 A2997 RMK A01 T02310192  RH  079%=      5-min Rain = 0
KME1 141236Z 18010KT 23/19 A2997 RMK A01 T02310192  RH  079%=      5-min Rain = 0
KME1 141237Z 18010KT 23/19 A2997 RMK A01 T02310192  RH  078%=      5-min Rain = 0
KME1 141238Z 18009KT 23/19 A2997 RMK A01 T02310192  RH  078%=      5-min Rain = 0
KME1 141239Z 18008G13KT 23/19 A2997 RMK A01 T02320193  RH  078%=      5-min Rain = 0
KME1 141240Z 18009KT 23/19 A2997 RMK A01 T02320192  RH  078%=      5-min Rain = 0
KME1 141241Z 18009KT 23/19 A2998 RMK A01 T02320192  RH  078%=      5-min Rain = 0
KME1 141242Z 19007KT 23/19 A2998 RMK A01 T02320192  RH  078%=      5-min Rain = 0
KME1 141243Z 19006KT 23/19 A2997 RMK A01 T02320192  RH  078%=      5-min Rain = 0
KME1 141244Z 19008KT 23/19 A2997 RMK A01 T02320192  RH  078%=      5-min Rain = 0
KME1 141245Z 18008KT 23/19 A2997 RMK A01 T02320192  RH  078%=      5-min Rain = 0
KME1 141246Z 19008KT 23/19 A2997 RMK A01 T02320192  RH  078%=      5-min Rain = 0
KME1 141247Z 19010KT 23/19 A2997 RMK A01 T02320192  RH  078%=      5-min Rain = 0
KME1 141248Z 18011KT 23/19 A2997 RMK A01 T02320192  RH  078%=      5-min Rain = 0
KME1 141249Z 18010KT 23/19 A2997 RMK A01 T02320192  RH  078%=      5-min Rain = 0
KME1 141250Z 18008KT 23/19 A2997 RMK A01 T02320192  RH  078%=      5-min Rain = 0
KME1 141251Z 18009KT 23/19 A2997 RMK A01 T02330193  RH  078%=      5-min Rain = 0
KME1 141252Z 18009KT 23/19 A2997 RMK A01 T02320192  RH  078%=      5-min Rain = 0
KME1 141253Z 18011KT 23/19 A2997 RMK A01 T02320192  RH  078%=      5-min Rain = 0
KME1 141254Z 18012KT 23/19 A2997 RMK A01 T02320192  RH  078%=      5-min Rain = 0
KME1 141255Z 18011KT 23/19 A2997 RMK A01 T02320192  RH  078%=      5-min Rain = 0
KME1 141256Z 18010G15KT 23/19 A2997 RMK A01 T02320192  RH  078%=      5-min Rain = 0
KME1 141257Z 18011KT 23/19 A2997 RMK A01 T02330192  RH  078%=      5-min Rain = 0
KME1 141258Z 18009KT 23/19 A2997 RMK A01 T02330192  RH  078%=      5-min Rain = 0
KME1 141259Z 18013KT 23/19 A2997 RMK A01 T02330192  RH  078%=      5-min Rain = 0
KME1 141300Z 17008KT 23/19 A2997 RMK A01 T02330192  RH  078%=      5-min Rain = 0
KME1 141301Z 17009KT 23/19 A2997 RMK A01 T02330192  RH  078%=      5-min Rain = 0
KME1 141302Z 19009KT 23/19 A2997 RMK A01 T02330193  RH  078%=      5-min Rain = 0
KME1 141303Z 18008G13KT 23/19 A2998 RMK A01 T02330193  RH  078%=      5-min Rain = 0
KME1 141304Z 18011KT 23/19 A2998 RMK A01 T02330193  RH  078%=      5-min Rain = 0
KME1 141305Z 18011KT 23/19 A2998 RMK A01 T02330192  RH  078%=      5-min Rain = 0
KME1 141306Z 18011KT 23/19 A2998 RMK A01 T02340193  RH  078%=      5-min Rain = 0
KME1 141307Z 18008KT 23/19 A2998 RMK A01 T02340193  RH  077%=      5-min Rain = 0
KME1 141308Z 19009KT 23/19 A2998 RMK A01 T02340193  RH  077%=      5-min Rain = 0
KME1 141309Z 18007KT 24/19 A2998 RMK A01 T02350193  RH  077%=      5-min Rain = 0
KME1 141310Z 17010KT 24/19 A2998 RMK A01 T02350193  RH  077%=      5-min Rain = 0
KME1 141311Z 19011KT 24/19 A2998 RMK A01 T02350193  RH  077%=      5-min Rain = 0
KME1 141312Z 18011KT 24/19 A2998 RMK A01 T02350193  RH  077%=      5-min Rain = 0
KME1 141313Z 18014KT 24/19 A2998 RMK A01 T02350193  RH  077%=      5-min Rain = 0
KME1 141314Z 18011KT 24/19 A2997 RMK A01 T02350193  RH  077%=      5-min Rain = 0
KME1 141315Z 18009G14KT 24/19 A2998 RMK A01 T02350193  RH  077%=      5-min Rain = 0
KME1 141316Z 18009KT 24/19 A2998 RMK A01 T02350193  RH  077%=      5-min Rain = 0
KME1 141317Z 18009KT 24/19 A2998 RMK A01 T02350193  RH  077%=      5-min Rain = 0
KME1 141318Z 18009KT 24/19 A2998 RMK A01 T02350193  RH  077%=      5-min Rain = 0
KME1 141319Z 18009KT 24/19 A2998 RMK A01 T02350193  RH  077%=      5-min Rain = 0
KME1 141320Z 18009KT 24/19 A2998 RMK A01 T02350193  RH  077%=      5-min Rain = 0
KME1 141321Z 18009KT 24/19 A2998 RMK A01 T02350193  RH  077%=      5-min Rain = 0
KME1 141322Z 17007KT 24/19 A2998 RMK A01 T02350194  RH  077%=      5-min Rain = 0
KME1 141323Z 18012KT 24/19 A2998 RMK A01 T02350194  RH  077%=      5-min Rain = 0
KME1 141324Z 18011KT 24/19 A2998 RMK A01 T02350194  RH  077%=      5-min Rain = 0
KME1 141325Z 18011KT 24/19 A2998 RMK A01 T02350193  RH  077%=      5-min Rain = 0
KME1 141326Z 18010KT 24/19 A2998 RMK A01 T02350193  RH  078%=      5-min Rain = 0
KME1 141327Z 18010KT 24/19 A2998 RMK A01 T02350194  RH  078%=      5-min Rain = 0
KME1 141328Z 18009KT 24/19 A2998 RMK A01 T02350193  RH  078%=      5-min Rain = 0
KME1 141329Z 18008KT 24/19 A2998 RMK A01 T02350194  RH  078%=      5-min Rain = 0
KME1 141330Z 18011KT 24/19 A2998 RMK A01 T02350193  RH  078%=      5-min Rain = 0
KME1 141331Z 18011KT 24/19 A2998 RMK A01 T02350193  RH  077%=      5-min Rain = 0
KME1 141332Z 18010KT 24/19 A2998 RMK A01 T02350193  RH  078%=      5-min Rain = 0
KME1 141333Z 18009KT 24/19 A2998 RMK A01 T02350193  RH  078%=      5-min Rain = 0
KME1 141334Z 18011KT 24/19 A2998 RMK A01 T02350193  RH  078%=      5-min Rain = 0
KME1 141335Z 18010KT 24/19 A2998 RMK A01 T02350193  RH  078%=      5-min Rain = 0
KME1 141336Z 18012KT 24/19 A2999 RMK A01 T02350193  RH  077%=      5-min Rain = 0
KME1 141337Z 18012KT 24/19 A2999 RMK A01 T02350193  RH  077%=      5-min Rain = 0
KME1 141338Z 18014KT 24/19 A2999 RMK A01 T02350193  RH  077%=      5-min Rain = 0
KME1 141339Z 18013KT 24/19 A2999 RMK A01 T02350193  RH  077%=      5-min Rain = 0
KME1 141340Z 17012KT 24/19 A2999 RMK A01 T02360193  RH  077%=      5-min Rain = 0
KME1 141341Z 19009KT 24/19 A2999 RMK A01 T02380194  RH  076%=      5-min Rain = 0
KME1 141342Z 18007KT 24/20 A2999 RMK A01 T02400195  RH  076%=      5-min Rain = 0
KME1 141343Z 18010KT 24/20 A2999 RMK A01 T02420195  RH  075%=      5-min Rain = 0
KME1 141344Z 18011G16KT 24/19 A2999 RMK A01 T02430194  RH  074%=      5-min Rain = 0
KME1 141345Z 18009KT 24/19 A2999 RMK A01 T02430194  RH  074%=      5-min Rain = 0
KME1 141346Z 18012KT 24/19 A2999 RMK A01 T02430194  RH  074%=      5-min Rain = 0
KME1 141347Z 18010KT 24/19 A2999 RMK A01 T02430194  RH  074%=      5-min Rain = 0
KME1 141348Z 18010G15KT 24/19 A2999 RMK A01 T02430194  RH  074%=      5-min Rain = 0
KME1 141349Z 18010KT 24/19 A2999 RMK A01 T02440194  RH  073%=      5-min Rain = 0
KME1 141350Z 17010G15KT 25/19 A2999 RMK A01 T02450194  RH  073%=      5-min Rain = 0
KME1 141351Z 18008KT 25/19 A2999 RMK A01 T02450194  RH  073%=      5-min Rain = 0
KME1 141352Z 18010KT 25/20 A2999 RMK A01 T02460195  RH  073%=      5-min Rain = 0
KME1 141353Z 17009G14KT 25/20 A2999 RMK A01 T02470195  RH  073%=      5-min Rain = 0
KME1 141354Z 17012KT 25/20 A2999 RMK A01 T02480195  RH  072%=      5-min Rain = 0
KME1 141355Z 17008KT 25/20 A2999 RMK A01 T02500195  RH  072%=      5-min Rain = 0
KME1 141356Z 18012KT 25/20 A2999 RMK A01 T02510196  RH  071%=      5-min Rain = 0
KME1 141357Z 19011KT 25/20 A2999 RMK A01 T02510195  RH  071%=      5-min Rain = 0
KME1 141358Z 18013KT 25/19 A2999 RMK A01 T02500194  RH  071%=      5-min Rain = 0
KME1 141359Z 17013KT 25/19 A2999 RMK A01 T02490194  RH  072%=      5-min Rain = 0
KME1 141400Z 17013KT 25/19 A2999 RMK A01 T02480194  RH  072%=      5-min Rain = 0
KME1 141401Z 18010KT 25/19 A30 RMK A01 T02490194  RH  072%=      5-min Rain = 0
KME1 141402Z 19009G14KT 25/20 A30 RMK A01 T02500195  RH  071%=      5-min Rain = 0
KME1 141403Z 18010KT 25/19 A30 RMK A01 T02510194  RH  071%=      5-min Rain = 0
KME1 141404Z 18009KT 25/20 A30 RMK A01 T02510195  RH  071%=      5-min Rain = 0
KME1 141405Z 17008KT 25/20 A30 RMK A01 T02510195  RH  071%=      5-min Rain = 0
KME1 141406Z 17011KT 25/20 A30 RMK A01 T02530195  RH  070%=      5-min Rain = 0
KME1 141407Z 18010KT 25/20 A30 RMK A01 T02540195  RH  070%=      5-min Rain = 0
KME1 141408Z 18012KT 25/20 A30 RMK A01 T02540195  RH  070%=      5-min Rain = 0
KME1 141409Z 18011KT 25/19 A30 RMK A01 T02530194  RH  070%=      5-min Rain = 0
KME1 141410Z 18011KT 25/20 A30 RMK A01 T02520195  RH  070%=      5-min Rain = 0
KME1 141411Z 17012KT 25/20 A30 RMK A01 T02520195  RH  070%=      5-min Rain = 0
KME1 141412Z 18009KT 25/19 A30 RMK A01 T02510194  RH  071%=      5-min Rain = 0
KME1 141413Z 18009KT 25/19 A30 RMK A01 T02490194  RH  071%=      5-min Rain = 0
KME1 141414Z 19006KT 25/19 A30 RMK A01 T02470194  RH  072%=      5-min Rain = 0
KME1 141415Z 18006KT 25/19 A30 RMK A01 T02470194  RH  073%=      5-min Rain = 0
KME1 141416Z 17006KT 25/19 A30 RMK A01 T02470194  RH  072%=      5-min Rain = 0
KME1 141417Z 16007KT 25/20 A30 RMK A01 T02480195  RH  072%=      5-min Rain = 0
KME1 141418Z 17008G14KT 25/19 A30 RMK A01 T02480194  RH  072%=      5-min Rain = 0
KME1 141419Z 17010KT 25/19 A30 RMK A01 T02480194  RH  072%=      5-min Rain = 0
KME1 141420Z 17011KT 25/19 A30 RMK A01 T02480194  RH  072%=      5-min Rain = 0
KME1 141421Z 17010KT 25/19 A30 RMK A01 T02480194  RH  072%=      5-min Rain = 0
KME1 141422Z 17011KT 25/19 A30 RMK A01 T02470194  RH  072%=      5-min Rain = 0
KME1 141423Z 18011KT 25/19 A30 RMK A01 T02470194  RH  072%=      5-min Rain = 0
KME1 141424Z 17009KT 25/19 A30 RMK A01 T02470194  RH  072%=      5-min Rain = 0
KME1 141425Z 16009KT 25/19 A30 RMK A01 T02480194  RH  072%=      5-min Rain = 0
KME1 141426Z 17010KT 25/19 A30 RMK A01 T02480194  RH  072%=      5-min Rain = 0
KME1 141427Z 17010KT 25/19 A30 RMK A01 T02490194  RH  071%=      5-min Rain = 0
KME1 141428Z 17010KT 25/19 A30 RMK A01 T02500194  RH  071%=      5-min Rain = 0
KME1 141429Z 17008KT 25/20 A30 RMK A01 T02530196  RH  070%=      5-min Rain = 0
KME1 141430Z 18009KT 26/20 A30 RMK A01 T02580196  RH  069%=      5-min Rain = 0
KME1 141431Z 17010G15KT 26/20 A30 RMK A01 T02600196  RH  068%=      5-min Rain = 0
KME1 141432Z 17010KT 26/20 A30 RMK A01 T02610196  RH  067%=      5-min Rain = 0
KME1 141433Z 17011KT 26/20 A30 RMK A01 T02610195  RH  067%=      5-min Rain = 0
KME1 141434Z 17012KT 26/20 A30 RMK A01 T02620195  RH  067%=      5-min Rain = 0
KME1 141435Z 17012KT 26/20 A30 RMK A01 T02620196  RH  067%=      5-min Rain = 0
KME1 141436Z 17011KT 26/20 A30 RMK A01 T02620195  RH  067%=      5-min Rain = 0
KME1 141437Z 17010KT 26/20 A30 RMK A01 T02620195  RH  067%=      5-min Rain = 0
KME1 141438Z 16013KT 26/19 A30 RMK A01 T02610194  RH  067%=      5-min Rain = 0
KME1 141439Z 16013KT 26/19 A30 RMK A01 T02600194  RH  067%=      5-min Rain = 0
KME1 141440Z 17012KT 26/19 A30 RMK A01 T02610194  RH  067%=      5-min Rain = 0
KME1 141441Z 17012KT 26/19 A30 RMK A01 T02610194  RH  066%=      5-min Rain = 0
KME1 141442Z 17010KT 26/19 A30 RMK A01 T02610194  RH  067%=      5-min Rain = 0
KME1 141443Z 17010G15KT 26/20 A30 RMK A01 T02620195  RH  067%=      5-min Rain = 0
KME1 141444Z 17011KT 26/20 A30 RMK A01 T02640195  RH  066%=      5-min Rain = 0
KME1 141445Z 16012KT 26/19 A30 RMK A01 T02640194  RH  065%=      5-min Rain = 0
KME1 141446Z 17013G18KT 27/19 A30 RMK A01 T02650194  RH  065%=      5-min Rain = 0
KME1 141447Z 18011KT 26/19 A30 RMK A01 T02640194  RH  065%=      5-min Rain = 0
KME1 141448Z 16009G14KT 26/20 A30 RMK A01 T02640195  RH  066%=      5-min Rain = 0
KME1 141449Z 17012KT 27/19 A30 RMK A01 T02650194  RH  065%=      5-min Rain = 0
KME1 141450Z 17011KT 27/20 A30 RMK A01 T02660195  RH  065%=      5-min Rain = 0
KME1 141451Z 17010KT 27/19 A30 RMK A01 T02670194  RH  064%=      5-min Rain = 0
KME1 141452Z 18008KT 27/20 A30 RMK A01 T02670195  RH  064%=      5-min Rain = 0
KME1 141453Z 17012G17KT 27/19 A30 RMK A01 T02670194  RH  064%=      5-min Rain = 0
KME1 141454Z 17012KT 27/19 A30 RMK A01 T02670194  RH  064%=      5-min Rain = 0
KME1 141455Z 17012KT 27/19 A30 RMK A01 T02670194  RH  064%=      5-min Rain = 0
KME1 141456Z 17011KT 27/19 A30 RMK A01 T02670193  RH  064%=      5-min Rain = 0
KME1 141457Z 17012KT 27/20 A30 RMK A01 T02670195  RH  064%=      5-min Rain = 0
KME1 141458Z 18011KT 27/19 A30 RMK A01 T02680194  RH  064%=      5-min Rain = 0
KME1 141459Z 18008KT 27/19 A30 RMK A01 T02690194  RH  063%=      5-min Rain = 0
KME1 141500Z 18008KT 27/20 A30 RMK A01 T02690195  RH  064%=      5-min Rain = 0
KME1 141501Z 17008KT 27/19 A30 RMK A01 T02690194  RH  064%=      5-min Rain = 0
KME1 141502Z 16009KT 27/20 A30 RMK A01 T02690195  RH  064%=      5-min Rain = 0
KME1 141503Z 16010KT 27/19 A30 RMK A01 T02670194  RH  064%=      5-min Rain = 0
KME1 141504Z 18010KT 26/19 A30 RMK A01 T02640193  RH  065%=      5-min Rain = 0
KME1 141505Z 17008KT 26/19 A30 RMK A01 T02620193  RH  066%=      5-min Rain = 0
KME1 141506Z 17008G13KT 26/19 A30 RMK A01 T02620193  RH  066%=      5-min Rain = 0
KME1 141507Z 17010KT 26/19 A30 RMK A01 T02620193  RH  066%=      5-min Rain = 0
KME1 141508Z 17010KT 26/19 A30 RMK A01 T02620193  RH  066%=      5-min Rain = 0
KME1 141509Z 17010KT 26/19 A30 RMK A01 T02620193  RH  066%=      5-min Rain = 0
KME1 141510Z 17014KT 26/19 A30 RMK A01 T02610193  RH  066%=      5-min Rain = 0
KME1 141511Z 18009KT 26/19 A30 RMK A01 T02600193  RH  066%=      5-min Rain = 0
KME1 141512Z 18009KT 26/19 A30 RMK A01 T02600194  RH  067%=      5-min Rain = 0
KME1 141513Z 17009KT 26/19 A30 RMK A01 T02620194  RH  066%=      5-min Rain = 0
KME1 141514Z 18012KT 26/19 A30 RMK A01 T02630193  RH  065%=      5-min Rain = 0
KME1 141515Z 18013KT 26/19 A30 RMK A01 T02630193  RH  065%=      5-min Rain = 0
KME1 141516Z 19012KT 26/19 A30 RMK A01 T02610192  RH  066%=      5-min Rain = 0
KME1 141517Z 18011KT 26/19 A30 RMK A01 T02600193  RH  066%=      5-min Rain = 0
KME1 141518Z 17009KT 26/19 A30 RMK A01 T02600192  RH  066%=      5-min Rain = 0
KME1 141519Z 17009KT 26/19 A30 RMK A01 T02600193  RH  067%=      5-min Rain = 0
KME1 141520Z 18010KT 26/19 A30 RMK A01 T02610194  RH  066%=      5-min Rain = 0
KME1 141521Z 18012KT 26/19 A30 RMK A01 T02620192  RH  066%=      5-min Rain = 0
KME1 141522Z 18011KT 26/19 A30 RMK A01 T02610192  RH  066%=      5-min Rain = 0
KME1 141523Z 18012KT 26/19 A30 RMK A01 T02600192  RH  066%=      5-min Rain = 0
KME1 141524Z 18012KT 26/19 A30 RMK A01 T02600192  RH  066%=      5-min Rain = 0
KME1 141525Z 18012KT 26/19 A30 RMK A01 T02590192  RH  066%=      5-min Rain = 0
KME1 141526Z 18009KT 26/19 A30 RMK A01 T02580192  RH  067%=      5-min Rain = 0
KME1 141527Z 18010KT 26/19 A30 RMK A01 T02590192  RH  067%=      5-min Rain = 0
KME1 141528Z 18008KT 26/19 A30 RMK A01 T02600193  RH  067%=      5-min Rain = 0
KME1 141529Z 18008KT 26/19 A30 RMK A01 T02630194  RH  066%=      5-min Rain = 0
KME1 141530Z 17008G13KT 27/20 A30 RMK A01 T02650195  RH  065%=      5-min Rain = 0
KME1 141531Z 17012KT 27/19 A30 RMK A01 T02670193  RH  064%=      5-min Rain = 0
KME1 141532Z 17013KT 27/19 A30 RMK A01 T02670193  RH  064%=      5-min Rain = 0
KME1 141533Z 17012KT 27/19 A30 RMK A01 T02670194  RH  064%=      5-min Rain = 0
KME1 141534Z 17013KT 27/19 A30 RMK A01 T02670193  RH  064%=      5-min Rain = 0
KME1 141535Z 17013KT 27/19 A30 RMK A01 T02660193  RH  064%=      5-min Rain = 0
KME1 141536Z 17013KT 27/19 A30 RMK A01 T02660193  RH  064%=      5-min Rain = 0
KME1 141537Z 17010KT 27/19 A30 RMK A01 T02650193  RH  065%=      5-min Rain = 0
KME1 141538Z 17009KT 27/19 A30 RMK A01 T02650193  RH  064%=      5-min Rain = 0
KME1 141539Z 16012KT 27/19 A30 RMK A01 T02660193  RH  064%=      5-min Rain = 0
KME1 141540Z 16012KT 27/19 A30 RMK A01 T02660193  RH  064%=      5-min Rain = 0
KME1 141541Z 17011KT 27/19 A30 RMK A01 T02670193  RH  064%=      5-min Rain = 0
KME1 141542Z 18011KT 27/19 A2999 RMK A01 T02670194  RH  064%=      5-min Rain = 0
KME1 141543Z 18014KT 27/19 A2999 RMK A01 T02680194  RH  064%=      5-min Rain = 0
KME1 141544Z 18010KT 27/19 A2999 RMK A01 T02680194  RH  064%=      5-min Rain = 0
KME1 141545Z 18008KT 27/20 A2999 RMK A01 T02700195  RH  064%=      5-min Rain = 0
KME1 141546Z 18008KT 27/20 A2999 RMK A01 T02720195  RH  063%=      5-min Rain = 0
KME1 141547Z 19013G18KT 27/20 A2999 RMK A01 T02730195  RH  063%=      5-min Rain = 0
KME1 141548Z 19012KT 27/20 A2999 RMK A01 T02720195  RH  063%=      5-min Rain = 0
KME1 141549Z 19012G17KT 27/20 A2999 RMK A01 T02710195  RH  063%=      5-min Rain = 0
KME1 141550Z 18012KT 27/19 A2999 RMK A01 T02720194  RH  062%=      5-min Rain = 0
KME1 141551Z 19013KT 27/19 A2999 RMK A01 T02720194  RH  062%=      5-min Rain = 0
KME1 141552Z 19016KT 27/19 A2999 RMK A01 T02730194  RH  062%=      5-min Rain = 0
KME1 141553Z 18009KT 27/19 A2999 RMK A01 T02720194  RH  062%=      5-min Rain = 0
KME1 141554Z 19008KT 27/20 A2999 RMK A01 T02730195  RH  063%=      5-min Rain = 0
KME1 141555Z 18007KT 28/20 A2999 RMK A01 T02750196  RH  062%=      5-min Rain = 0
KME1 141556Z 18010KT 28/20 A2999 RMK A01 T02780197  RH  062%=      5-min Rain = 0
KME1 141557Z 17009KT 28/20 A2999 RMK A01 T02780196  RH  061%=      5-min Rain = 0
KME1 141558Z 16014KT 28/20 A2999 RMK A01 T02790197  RH  061%=      5-min Rain = 0
KME1 141559Z 18010KT 28/20 A2999 RMK A01 T02800197  RH  061%=      5-min Rain = 0
KME1 141600Z 18012KT 28/20 A2999 RMK A01 T02810196  RH  060%=      5-min Rain = 0
KME1 141601Z 17011KT 28/20 A2999 RMK A01 T02810195  RH  060%=      5-min Rain = 0
KME1 141602Z 17012KT 28/20 A2999 RMK A01 T02800195  RH  060%=      5-min Rain = 0
KME1 141603Z 16011KT 28/20 A2999 RMK A01 T02790195  RH  060%=      5-min Rain = 0
KME1 141604Z 17012KT 28/20 A2999 RMK A01 T02800196  RH  060%=      5-min Rain = 0
KME1 141605Z 16009KT 28/20 A2999 RMK A01 T02820198  RH  060%=      5-min Rain = 0
KME1 141606Z 17012KT 29/20 A2999 RMK A01 T02880199  RH  059%=      5-min Rain = 0
KME1 141607Z 16011KT 29/20 A2999 RMK A01 T02920198  RH  057%=      5-min Rain = 0
KME1 141608Z 18011G16KT 29/20 A2999 RMK A01 T02920196  RH  056%=      5-min Rain = 0
KME1 141609Z 18012KT 29/20 A2999 RMK A01 T02880196  RH  058%=      5-min Rain = 0
KME1 141610Z 16010KT 29/20 A2999 RMK A01 T02850197  RH  059%=      5-min Rain = 0
KME1 141611Z 15011G17KT 29/20 A2999 RMK A01 T02860197  RH  059%=      5-min Rain = 0
KME1 141612Z 17012KT 29/20 A2998 RMK A01 T02860197  RH  058%=      5-min Rain = 0
KME1 141613Z 17013KT 29/20 A2998 RMK A01 T02860197  RH  058%=      5-min Rain = 0
KME1 141614Z 16011KT 29/20 A2998 RMK A01 T02850196  RH  058%=      5-min Rain = 0
KME1 141615Z 17010KT 28/20 A2998 RMK A01 T02830195  RH  059%=      5-min Rain = 0
KME1 141616Z 17007KT 28/20 A2998 RMK A01 T02820197  RH  060%=      5-min Rain = 0
KME1 141617Z 17008G13KT 28/20 A2998 RMK A01 T02840198  RH  060%=      5-min Rain = 0
KME1 141618Z 17008KT 29/20 A2998 RMK A01 T02890200  RH  058%=      5-min Rain = 0
KME1 141619Z 17010G16KT 29/20 A2999 RMK A01 T02940199  RH  057%=      5-min Rain = 0
KME1 141620Z 18012G17KT 30/20 A2999 RMK A01 T02970198  RH  055%=      5-min Rain = 0
KME1 141621Z 16010G15KT 30/20 A2999 RMK A01 T02960198  RH  056%=      5-min Rain = 0
KME1 141622Z 17009KT 30/20 A2999 RMK A01 T02970199  RH  056%=      5-min Rain = 0
KME1 141623Z 17013KT 30/20 A2999 RMK A01 T02990199  RH  055%=      5-min Rain = 0
KME1 141624Z 19011G16KT 30/20 A2999 RMK A01 T03000199  RH  055%=      5-min Rain = 0
KME1 141625Z 18010KT 30/20 A2999 RMK A01 T03000198  RH  054%=      5-min Rain = 0
KME1 141626Z 16011G16KT 30/20 A2999 RMK A01 T02980197  RH  055%=      5-min Rain = 0
KME1 141627Z 16013KT 30/20 A2998 RMK A01 T02970198  RH  055%=      5-min Rain = 0
KME1 141628Z 18013G18KT 30/20 A2998 RMK A01 T02970198  RH  055%=      5-min Rain = 0
KME1 141629Z 18014KT 30/20 A2999 RMK A01 T02990198  RH  055%=      5-min Rain = 0
KME1 141630Z 18014G19KT 30/20 A2998 RMK A01 T03000196  RH  054%=      5-min Rain = 0
KME1 141631Z 17014KT 30/20 A2998 RMK A01 T02960196  RH  055%=      5-min Rain = 0
KME1 141632Z 17014G19KT 29/20 A2999 RMK A01 T02940196  RH  056%=      5-min Rain = 0
KME1 141633Z 16012G18KT 30/20 A2998 RMK A01 T02950196  RH  055%=      5-min Rain = 0
KME1 141634Z 18014KT 30/20 A2999 RMK A01 T02960196  RH  055%=      5-min Rain = 0
KME1 141635Z 18011KT 30/20 A2998 RMK A01 T02970196  RH  055%=      5-min Rain = 0
KME1 141636Z 16013KT 30/20 A2998 RMK A01 T02970197  RH  055%=      5-min Rain = 0
KME1 141637Z 15011KT 30/20 A2999 RMK A01 T02970196  RH  055%=      5-min Rain = 0
KME1 141638Z 16012KT 30/20 A2999 RMK A01 T02980197  RH  055%=      5-min Rain = 0
KME1 141639Z 17013KT 30/20 A2999 RMK A01 T02990196  RH  054%=      5-min Rain = 0
KME1 141640Z 16013KT 30/20 A2999 RMK A01 T02980197  RH  054%=      5-min Rain = 0
KME1 141641Z 19010KT 30/20 A2999 RMK A01 T02980197  RH  055%=      5-min Rain = 0
KME1 141642Z 18012G19KT 30/20 A2999 RMK A01 T02990197  RH  054%=      5-min Rain = 0
KME1 141643Z 19014KT 30/20 A2999 RMK A01 T02980196  RH  054%=      5-min Rain = 0
KME1 141644Z 19009KT 30/20 A2999 RMK A01 T02950196  RH  056%=      5-min Rain = 0
KME1 141645Z 19009KT 30/20 A2999 RMK A01 T02950196  RH  055%=      5-min Rain = 0
KME1 141646Z 20008KT 30/20 A2999 RMK A01 T02960196  RH  055%=      5-min Rain = 0
KME1 141647Z 20010KT 30/20 A2999 RMK A01 T02970196  RH  055%=      5-min Rain = 0
KME1 141648Z 18011KT 30/20 A2999 RMK A01 T02990197  RH  054%=      5-min Rain = 0
KME1 141649Z 18008KT 30/20 A2999 RMK A01 T03010197  RH  054%=      5-min Rain = 0
KME1 141650Z 18009KT 30/20 A2999 RMK A01 T03010196  RH  053%=      5-min Rain = 0
KME1 141651Z 18010KT 30/20 A2999 RMK A01 T03000196  RH  054%=      5-min Rain = 0
KME1 141652Z 18009KT 30/20 A2999 RMK A01 T02970196  RH  055%=      5-min Rain = 0
KME1 141653Z 19011KT 30/20 A2999 RMK A01 T02950196  RH  055%=      5-min Rain = 0
KME1 141654Z 20013KT 29/20 A2999 RMK A01 T02930195  RH  055%=      5-min Rain = 0
KME1 141655Z 20011KT 29/19 A2999 RMK A01 T02900193  RH  056%=      5-min Rain = 0
KME1 141656Z 19010KT 29/19 A2999 RMK A01 T02880194  RH  057%=      5-min Rain = 0
KME1 141657Z 18009KT 29/19 A2999 RMK A01 T02880194  RH  057%=      5-min Rain = 0
KME1 141658Z 16009KT 29/20 A2999 RMK A01 T02900195  RH  057%=      5-min Rain = 0
KME1 141659Z 16011KT 30/20 A2999 RMK A01 T02950198  RH  056%=      5-min Rain = 0
KME1 141700Z 17012KT 30/20 A2999 RMK A01 T03000197  RH  054%=      5-min Rain = 0
KME1 141701Z 17012KT 30/20 A2999 RMK A01 T03010196  RH  054%=      5-min Rain = 0
KME1 141702Z 18009G14KT 30/20 A2998 RMK A01 T02980197  RH  054%=      5-min Rain = 0
KME1 141703Z 18011G17KT 30/20 A2998 RMK A01 T02990197  RH  054%=      5-min Rain = 0
KME1 141704Z 18011KT 30/20 A2998 RMK A01 T03000196  RH  054%=      5-min Rain = 0
KME1 141705Z 19012KT 30/20 A2998 RMK A01 T03000197  RH  054%=      5-min Rain = 0
KME1 141706Z 19013KT 30/20 A2998 RMK A01 T03020196  RH  053%=      5-min Rain = 0
KME1 141707Z 19013KT 30/20 A2998 RMK A01 T02990195  RH  054%=      5-min Rain = 0
KME1 141708Z 20013G19KT 30/20 A2998 RMK A01 T02970195  RH  054%=      5-min Rain = 0
KME1 141709Z 20011G17KT 30/19 A2998 RMK A01 T02980194  RH  054%=      5-min Rain = 0
KME1 141710Z 20013G19KT 30/19 A2998 RMK A01 T02990193  RH  053%=      5-min Rain = 0
KME1 141711Z 19010KT 30/19 A2998 RMK A01 T02970194  RH  054%=      5-min Rain = 0
KME1 141712Z 19011G17KT 30/20 A2998 RMK A01 T03000197  RH  054%=      5-min Rain = 0
KME1 141713Z 19013KT 31/20 A2998 RMK A01 T03060197  RH  052%=      5-min Rain = 0
KME1 141714Z 19012G17KT 31/20 A2998 RMK A01 T03060196  RH  052%=      5-min Rain = 0
KME1 141715Z 17009KT 30/20 A2998 RMK A01 T03020195  RH  053%=      5-min Rain = 0
KME1 141716Z 18011KT 30/20 A2998 RMK A01 T03000196  RH  054%=      5-min Rain = 0
KME1 141717Z 19008G13KT 30/20 A2998 RMK A01 T02980195  RH  054%=      5-min Rain = 0
KME1 141718Z 18012KT 30/20 A2998 RMK A01 T02950195  RH  055%=      5-min Rain = 0
KME1 141719Z 18012KT 29/19 A2998 RMK A01 T02940194  RH  055%=      5-min Rain = 0
KME1 141720Z 17011G16KT 29/20 A2998 RMK A01 T02920195  RH  056%=      5-min Rain = 0
KME1 141721Z 18013KT 29/20 A2998 RMK A01 T02930195  RH  056%=      5-min Rain = 0
KME1 141722Z 18011KT 30/19 A2998 RMK A01 T02950194  RH  055%=      5-min Rain = 0
KME1 141723Z 19008G13KT 30/20 A2998 RMK A01 T02970196  RH  055%=      5-min Rain = 0
KME1 141724Z 18010KT 30/20 A2998 RMK A01 T02980195  RH  054%=      5-min Rain = 0
KME1 141725Z 17012KT 30/20 A2998 RMK A01 T02980195  RH  054%=      5-min Rain = 0
KME1 141726Z 17012G17KT 30/20 A2998 RMK A01 T02980196  RH  054%=      5-min Rain = 0
KME1 141727Z 15014KT 30/20 A2998 RMK A01 T03010196  RH  054%=      5-min Rain = 0
KME1 141728Z 17013KT 30/20 A2998 RMK A01 T03040197  RH  053%=      5-min Rain = 0
KME1 141729Z 17012KT 30/20 A2998 RMK A01 T03040196  RH  052%=      5-min Rain = 0
KME1 141730Z 18010KT 30/20 A2998 RMK A01 T03020196  RH  053%=      5-min Rain = 0
KME1 141731Z 18009KT 30/20 A2998 RMK A01 T03040197  RH  053%=      5-min Rain = 0
KME1 141732Z 19009KT 31/20 A2998 RMK A01 T03050198  RH  053%=      5-min Rain = 0
KME1 141733Z 21006KT 30/20 A2998 RMK A01 T03040198  RH  053%=      5-min Rain = 0
KME1 141734Z 20010KT 31/20 A2998 RMK A01 T03090199  RH  052%=      5-min Rain = 0
KME1 141735Z 19009KT 31/20 A2998 RMK A01 T03110197  RH  051%=      5-min Rain = 0
KME1 141736Z 18012KT 31/20 A2998 RMK A01 T03090198  RH  052%=      5-min Rain = 0
KME1 141737Z 16011KT 31/20 A2998 RMK A01 T03090197  RH  051%=      5-min Rain = 0
KME1 141738Z 16012KT 31/20 A2998 RMK A01 T03090197  RH  052%=      5-min Rain = 0
KME1 141739Z 19013KT 31/20 A2998 RMK A01 T03100197  RH  051%=      5-min Rain = 0
KME1 141740Z 19014KT 31/19 A2998 RMK A01 T03070194  RH  051%=      5-min Rain = 0
KME1 141741Z 20013KT 31/19 A2998 RMK A01 T03060192  RH  051%=      5-min Rain = 0
KME1 141742Z 20010KT 31/19 A2998 RMK A01 T03060193  RH  051%=      5-min Rain = 0
KME1 141743Z 19010G15KT 31/19 A2998 RMK A01 T03070194  RH  051%=      5-min Rain = 0
KME1 141744Z 19010KT 31/19 A2998 RMK A01 T03080194  RH  051%=      5-min Rain = 0
KME1 141745Z 21014G20KT 31/20 A2998 RMK A01 T03080195  RH  051%=      5-min Rain = 0
KME1 141746Z 21014G19KT 31/19 A2998 RMK A01 T03090194  RH  050%=      5-min Rain = 0
KME1 141747Z 20012KT 31/20 A2998 RMK A01 T03080195  RH  051%=      5-min Rain = 0
KME1 141748Z 17010G15KT 31/20 A2998 RMK A01 T03080196  RH  051%=      5-min Rain = 0
KME1 141749Z 17011KT 31/20 A2998 RMK A01 T03090196  RH  051%=      5-min Rain = 0
KME1 141750Z 17012KT 31/20 A2998 RMK A01 T03120197  RH  051%=      5-min Rain = 0
KME1 141751Z 18013KT 31/20 A2998 RMK A01 T03110196  RH  050%=      5-min Rain = 0
KME1 141752Z 20013KT 31/20 A2998 RMK A01 T03070195  RH  051%=      5-min Rain = 0
KME1 141753Z 18013KT 30/20 A2998 RMK A01 T03040195  RH  052%=      5-min Rain = 0
KME1 141754Z 19012KT 30/19 A2998 RMK A01 T03040194  RH  052%=      5-min Rain = 0
KME1 141755Z 20015KT 30/19 A2998 RMK A01 T03040194  RH  052%=      5-min Rain = 0
KME1 141756Z 19014KT 31/19 A2998 RMK A01 T03050193  RH  051%=      5-min Rain = 0
KME1 141757Z 19014KT 31/19 A2998 RMK A01 T03060193  RH  051%=      5-min Rain = 0
KME1 141758Z 20013KT 31/19 A2998 RMK A01 T03060193  RH  051%=      5-min Rain = 0
KME1 141759Z 19008G13KT 31/19 A2998 RMK A01 T03070194  RH  051%=      5-min Rain = 0
KME1 141800Z 19011KT 31/19 A2998 RMK A01 T03080194  RH  051%=      5-min Rain = 0
KME1 141801Z 17009G14KT 31/20 A2997 RMK A01 T03080195  RH  051%=      5-min Rain = 0
KME1 141802Z 17011G17KT 31/19 A2997 RMK A01 T03090194  RH  050%=      5-min Rain = 0
KME1 141803Z 18011G19KT 31/20 A2997 RMK A01 T03090195  RH  051%=      5-min Rain = 0
KME1 141804Z 17013KT 31/20 A2997 RMK A01 T03090196  RH  051%=      5-min Rain = 0
KME1 141805Z 16011KT 31/20 A2997 RMK A01 T03080196  RH  051%=      5-min Rain = 0
KME1 141806Z 15012KT 31/20 A2997 RMK A01 T03080196  RH  051%=      5-min Rain = 0
KME1 141807Z 18012KT 31/20 A2997 RMK A01 T03120197  RH  051%=      5-min Rain = 0
KME1 141808Z 18011KT 31/20 A2997 RMK A01 T03140197  RH  050%=      5-min Rain = 0
KME1 141809Z 18011KT 31/20 A2997 RMK A01 T03110197  RH  051%=      5-min Rain = 0
KME1 141810Z 19010KT 31/20 A2997 RMK A01 T03080196  RH  051%=      5-min Rain = 0
KME1 141811Z 18012KT 31/20 A2997 RMK A01 T03070195  RH  051%=      5-min Rain = 0
KME1 141812Z 18010KT 31/20 A2997 RMK A01 T03080195  RH  051%=      5-min Rain = 0
KME1 141813Z 18009KT 31/19 A2997 RMK A01 T03110194  RH  050%=      5-min Rain = 0
KME1 141814Z 17010KT 31/19 A2997 RMK A01 T03100194  RH  050%=      5-min Rain = 0
KME1 141815Z 19009KT 31/20 A2997 RMK A01 T03110195  RH  050%=      5-min Rain = 0
KME1 141816Z 19008KT 31/20 A2997 RMK A01 T03120196  RH  050%=      5-min Rain = 0
KME1 141817Z 19011KT 31/20 A2997 RMK A01 T03120195  RH  050%=      5-min Rain = 0
KME1 141818Z 20009KT 31/19 A2997 RMK A01 T03130193  RH  049%=      5-min Rain = 0
KME1 141819Z 20010KT 31/19 A2997 RMK A01 T03120193  RH  049%=      5-min Rain = 0
KME1 141820Z 19012KT 31/20 A2997 RMK A01 T03100195  RH  050%=      5-min Rain = 0
KME1 141821Z 17015KT 31/19 A2997 RMK A01 T03090194  RH  050%=      5-min Rain = 0
KME1 141822Z 18013G18KT 31/19 A2997 RMK A01 T03070194  RH  051%=      5-min Rain = 0
KME1 141823Z 17010KT 31/19 A2997 RMK A01 T03050193  RH  051%=      5-min Rain = 0
KME1 141824Z 17012KT 30/19 A2997 RMK A01 T03040193  RH  052%=      5-min Rain = 0
KME1 141825Z 17010KT 31/19 A2997 RMK A01 T03060194  RH  051%=      5-min Rain = 0
KME1 141826Z 16013KT 31/20 A2997 RMK A01 T03090196  RH  051%=      5-min Rain = 0
KME1 141827Z 17011G16KT 31/20 A2997 RMK A01 T03130195  RH  050%=      5-min Rain = 0
KME1 141828Z 16006KT 31/20 A2997 RMK A01 T03120196  RH  050%=      5-min Rain = 0
KME1 141829Z 15009KT 31/20 A2997 RMK A01 T03120195  RH  050%=      5-min Rain = 0
KME1 141830Z 15008KT 31/19 A2997 RMK A01 T03120194  RH  050%=      5-min Rain = 0
KME1 141831Z 16009KT 31/19 A2997 RMK A01 T03090194  RH  050%=      5-min Rain = 0
KME1 141832Z 16011KT 31/19 A2997 RMK A01 T03100193  RH  050%=      5-min Rain = 0
KME1 141833Z 18012KT 31/19 A2997 RMK A01 T03110193  RH  049%=      5-min Rain = 0
KME1 141834Z 18012KT 31/19 A2997 RMK A01 T03130194  RH  049%=      5-min Rain = 0
KME1 141835Z 18010G15KT 32/19 A2997 RMK A01 T03150193  RH  049%=      5-min Rain = 0
KME1 141836Z 19004KT 31/19 A2997 RMK A01 T03120192  RH  049%=      5-min Rain = 0
KME1 141837Z 17009G15KT 31/19 A2997 RMK A01 T03110193  RH  050%=      5-min Rain = 0
KME1 141838Z 17013KT 32/20 A2997 RMK A01 T03150196  RH  049%=      5-min Rain = 0
KME1 141839Z 17010KT 32/20 A2997 RMK A01 T03170195  RH  048%=      5-min Rain = 0
KME1 141840Z 16008KT 32/20 A2997 RMK A01 T03160195  RH  049%=      5-min Rain = 0
KME1 141841Z 15011KT 32/19 A2997 RMK A01 T03150194  RH  049%=      5-min Rain = 0
KME1 141842Z 15009KT 32/20 A2997 RMK A01 T03150195  RH  049%=      5-min Rain = 0
KME1 141843Z 19011KT 32/20 A2996 RMK A01 T03170195  RH  048%=      5-min Rain = 0
KME1 141844Z 16009KT 32/19 A2997 RMK A01 T03170194  RH  048%=      5-min Rain = 0
KME1 141845Z 18007KT 32/19 A2996 RMK A01 T03170193  RH  048%=      5-min Rain = 0
KME1 141846Z 16010KT 32/19 A2996 RMK A01 T03150193  RH  048%=      5-min Rain = 0
KME1 141847Z 16010KT 32/19 A2996 RMK A01 T03150192  RH  048%=      5-min Rain = 0
KME1 141848Z 17011KT 32/19 A2996 RMK A01 T03150194  RH  048%=      5-min Rain = 0
KME1 141849Z 18011KT 32/19 A2997 RMK A01 T03180192  RH  047%=      5-min Rain = 0
KME1 141850Z 18010KT 32/19 A2996 RMK A01 T03170192  RH  047%=      5-min Rain = 0
KME1 141851Z 16009KT 32/19 A2996 RMK A01 T03180193  RH  048%=      5-min Rain = 0
KME1 141852Z 17008KT 32/19 A2996 RMK A01 T03200192  RH  047%=      5-min Rain = 0
KME1 141853Z 19011KT 32/19 A2996 RMK A01 T03210193  RH  047%=      5-min Rain = 0
KME1 141854Z 20012G17KT 32/19 A2996 RMK A01 T03210193  RH  047%=      5-min Rain = 0
KME1 141855Z 19011G16KT 32/19 A2996 RMK A01 T03180191  RH  047%=      5-min Rain = 0
KME1 141856Z 18012KT 31/19 A2996 RMK A01 T03130189  RH  048%=      5-min Rain = 0
KME1 141857Z 18009KT 31/19 A2996 RMK A01 T03080190  RH  049%=      5-min Rain = 0
KME1 141858Z 20008KT 31/19 A2996 RMK A01 T03080191  RH  050%=      5-min Rain = 0
KME1 141859Z 21010G15KT 31/19 A2996 RMK A01 T03090190  RH  049%=      5-min Rain = 0
KME1 141900Z 18011KT 31/19 A2996 RMK A01 T03090192  RH  050%=      5-min Rain = 0
KME1 141901Z 18011KT 31/19 A2996 RMK A01 T03100192  RH  050%=      5-min Rain = 0
KME1 141902Z 17012KT 31/19 A2996 RMK A01 T03080192  RH  050%=      5-min Rain = 0
KME1 141903Z 17010KT 31/19 A2996 RMK A01 T03070190  RH  050%=      5-min Rain = 0
KME1 141904Z 18009KT 31/19 A2996 RMK A01 T03070190  RH  050%=      5-min Rain = 0
KME1 141905Z 17009KT 31/19 A2996 RMK A01 T03080190  RH  050%=      5-min Rain = 0
KME1 141906Z 18008KT 31/19 A2996 RMK A01 T03100190  RH  049%=      5-min Rain = 0
KME1 141907Z 19011KT 31/19 A2996 RMK A01 T03120191  RH  049%=      5-min Rain = 0
KME1 141908Z 19010KT 31/19 A2996 RMK A01 T03140190  RH  048%=      5-min Rain = 0
KME1 141909Z 20008KT 31/19 A2996 RMK A01 T03130191  RH  048%=      5-min Rain = 0
KME1 141910Z 20010KT 31/19 A2996 RMK A01 T03140191  RH  048%=      5-min Rain = 0
KME1 141911Z 19013G18KT 32/19 A2996 RMK A01 T03180192  RH  047%=      5-min Rain = 0
KME1 141912Z 19011KT 32/19 A2996 RMK A01 T03190192  RH  047%=      5-min Rain = 0
KME1 141913Z 19010KT 32/19 A2996 RMK A01 T03160191  RH  048%=      5-min Rain = 0
KME1 141914Z 18009KT 31/19 A2996 RMK A01 T03110192  RH  049%=      5-min Rain = 0
KME1 141915Z 17014G19KT 31/19 A2996 RMK A01 T03100191  RH  049%=      5-min Rain = 0
KME1 141916Z 16012KT 31/19 A2996 RMK A01 T03090190  RH  049%=      5-min Rain = 0
KME1 141917Z 17007KT 31/19 A2996 RMK A01 T03100191  RH  049%=      5-min Rain = 0
KME1 141918Z 16009KT 31/19 A2996 RMK A01 T03140192  RH  048%=      5-min Rain = 0
KME1 141919Z 17012KT 32/19 A2996 RMK A01 T03150192  RH  048%=      5-min Rain = 0
KME1 141920Z 16011KT 31/19 A2995 RMK A01 T03120192  RH  049%=      5-min Rain = 0
KME1 141921Z 19011KT 31/19 A2995 RMK A01 T03120193  RH  049%=      5-min Rain = 0
KME1 141922Z 18013KT 32/19 A2995 RMK A01 T03150194  RH  049%=      5-min Rain = 0
KME1 141923Z 18013KT 32/19 A2995 RMK A01 T03170194  RH  048%=      5-min Rain = 0
KME1 141924Z 19015KT 32/19 A2995 RMK A01 T03170194  RH  048%=      5-min Rain = 0
KME1 141925Z 21013G18KT 32/19 A2995 RMK A01 T03170193  RH  048%=      5-min Rain = 0
KME1 141926Z 18010G16KT 32/19 A2995 RMK A01 T03170194  RH  048%=      5-min Rain = 0
KME1 141927Z 17011KT 32/19 A2995 RMK A01 T03180194  RH  048%=      5-min Rain = 0
KME1 141928Z 17011KT 32/19 A2995 RMK A01 T03210192  RH  047%=      5-min Rain = 0
KME1 141929Z 16009KT 32/19 A2995 RMK A01 T03190191  RH  047%=      5-min Rain = 0
KME1 141930Z 17010KT 32/19 A2995 RMK A01 T03180191  RH  047%=      5-min Rain = 0
KME1 141931Z 17012KT 32/19 A2995 RMK A01 T03180192  RH  047%=      5-min Rain = 0
KME1 141932Z 18013KT 32/19 A2995 RMK A01 T03190193  RH  047%=      5-min Rain = 0
KME1 141933Z 17011G16KT 32/19 A2995 RMK A01 T03170192  RH  048%=      5-min Rain = 0
KME1 141934Z 17011KT 31/19 A2995 RMK A01 T03130191  RH  048%=      5-min Rain = 0
KME1 141935Z 18013KT 31/19 A2995 RMK A01 T03120192  RH  049%=      5-min Rain = 0
KME1 141936Z 18011KT 31/19 A2995 RMK A01 T03100191  RH  049%=      5-min Rain = 0
KME1 141937Z 18011KT 31/19 A2995 RMK A01 T03110191  RH  049%=      5-min Rain = 0
KME1 141938Z 18012KT 31/19 A2995 RMK A01 T03120191  RH  049%=      5-min Rain = 0
KME1 141939Z 17014KT 31/19 A2995 RMK A01 T03110190  RH  049%=      5-min Rain = 0
KME1 141940Z 16012KT 31/19 A2995 RMK A01 T03110190  RH  049%=      5-min Rain = 0
KME1 141941Z 15011KT 32/19 A2995 RMK A01 T03170191  RH  047%=      5-min Rain = 0
KME1 141942Z 16013KT 32/19 A2995 RMK A01 T03230192  RH  046%=      5-min Rain = 0
KME1 141943Z 19007KT 33/19 A2995 RMK A01 T03250192  RH  045%=      5-min Rain = 0
KME1 141944Z 20007KT 33/19 A2994 RMK A01 T03290193  RH  045%=      5-min Rain = 0
KME1 141945Z 17008KT 33/19 A2994 RMK A01 T03300194  RH  045%=      5-min Rain = 0
KME1 141946Z 15011KT 33/19 A2994 RMK A01 T03330194  RH  044%=      5-min Rain = 0
KME1 141947Z 17013G19KT 34/19 A2994 RMK A01 T03350194  RH  044%=      5-min Rain = 0
KME1 141948Z 18013G18KT 33/19 A2994 RMK A01 T03340192  RH  043%=      5-min Rain = 0
KME1 141949Z 21012G18KT 33/19 A2994 RMK A01 T03280191  RH  044%=      5-min Rain = 0
KME1 141950Z 20009KT 33/19 A2994 RMK A01 T03250189  RH  045%=      5-min Rain = 0
KME1 141951Z 19009G14KT 32/19 A2994 RMK A01 T03230190  RH  046%=      5-min Rain = 0
KME1 141952Z 18008KT 32/19 A2994 RMK A01 T03210189  RH  046%=      5-min Rain = 0
KME1 141953Z 18010KT 32/19 A2994 RMK A01 T03190190  RH  046%=      5-min Rain = 0
KME1 141954Z 18013KT 32/19 A2994 RMK A01 T03190188  RH  046%=      5-min Rain = 0
KME1 141955Z 18012KT 32/19 A2994 RMK A01 T03180187  RH  046%=      5-min Rain = 0
KME1 141956Z 21010G16KT 32/19 A2994 RMK A01 T03170188  RH  046%=      5-min Rain = 0
KME1 141957Z 20012KT 32/19 A2994 RMK A01 T03220188  RH  045%=      5-min Rain = 0
KME1 141958Z 20009KT 32/19 A2994 RMK A01 T03240189  RH  045%=      5-min Rain = 0
KME1 141959Z 20012KT 33/19 A2994 RMK A01 T03270189  RH  044%=      5-min Rain = 0
KME1 142000Z 21013KT 33/19 A2994 RMK A01 T03280189  RH  044%=      5-min Rain = 0
KME1 142001Z 20010G15KT 33/19 A2994 RMK A01 T03270188  RH  044%=      5-min Rain = 0
KME1 142002Z 21009KT 32/19 A2994 RMK A01 T03230187  RH  045%=      5-min Rain = 0
KME1 142003Z 22009G15KT 32/19 A2994 RMK A01 T03210188  RH  045%=      5-min Rain = 0
KME1 142004Z 21010G15KT 33/19 A2994 RMK A01 T03260190  RH  045%=      5-min Rain = 0
KME1 142005Z 17010G15KT 33/19 A2993 RMK A01 T03310192  RH  044%=      5-min Rain = 0
KME1 142006Z 20013G18KT 34/19 A2993 RMK A01 T03360192  RH  043%=      5-min Rain = 0
KME1 142007Z 18013KT 33/19 A2993 RMK A01 T03330190  RH  043%=      5-min Rain = 0
KME1 142008Z 19012KT 33/19 A2993 RMK A01 T03290189  RH  043%=      5-min Rain = 0
KME1 142009Z 19012KT 33/19 A2993 RMK A01 T03280189  RH  044%=      5-min Rain = 0
KME1 142010Z 18015KT 33/19 A2993 RMK A01 T03290190  RH  044%=      5-min Rain = 0
KME1 142011Z 18013KT 33/19 A2993 RMK A01 T03290188  RH  043%=      5-min Rain = 0
KME1 142012Z 19011KT 32/19 A2993 RMK A01 T03230188  RH  045%=      5-min Rain = 0
KME1 142013Z 18010KT 32/19 A2993 RMK A01 T03220187  RH  045%=      5-min Rain = 0
KME1 142014Z 20007KT 32/19 A2993 RMK A01 T03210187  RH  045%=      5-min Rain = 0
KME1 142015Z 18010KT 32/19 A2993 RMK A01 T03210188  RH  045%=      5-min Rain = 0
KME1 142016Z 18008KT 32/19 A2993 RMK A01 T03220187  RH  045%=      5-min Rain = 0
KME1 142017Z 17010KT 33/19 A2993 RMK A01 T03280189  RH  044%=      5-min Rain = 0
KME1 142018Z 17008KT 33/19 A2993 RMK A01 T03310188  RH  043%=      5-min Rain = 0
KME1 142019Z 18012KT 33/19 A2993 RMK A01 T03300188  RH  043%=      5-min Rain = 0
KME1 142020Z 18013KT 33/19 A2993 RMK A01 T03260186  RH  043%=      5-min Rain = 0
KME1 142021Z 17012KT 33/19 A2993 RMK A01 T03250185  RH  044%=      5-min Rain = 0
KME1 142022Z 18011KT 32/19 A2993 RMK A01 T03240185  RH  044%=      5-min Rain = 0
KME1 142023Z 17011KT 32/19 A2993 RMK A01 T03230186  RH  044%=      5-min Rain = 0
KME1 142024Z 17011KT 33/19 A2993 RMK A01 T03250185  RH  044%=      5-min Rain = 0
KME1 142025Z 16009KT 33/19 A2993 RMK A01 T03280186  RH  043%=      5-min Rain = 0
KME1 142026Z 16009KT 33/19 A2992 RMK A01 T03310187  RH  043%=      5-min Rain = 0
KME1 142027Z 16010KT 33/19 A2992 RMK A01 T03330188  RH  042%=      5-min Rain = 0
KME1 142028Z 18014KT 34/19 A2992 RMK A01 T03350190  RH  042%=      5-min Rain = 0
KME1 142029Z 18009KT 33/19 A2992 RMK A01 T03330189  RH  043%=      5-min Rain = 0
KME1 142030Z 16009KT 33/19 A2992 RMK A01 T03320189  RH  043%=      5-min Rain = 0
KME1 142031Z 16007KT 33/19 A2992 RMK A01 T03330188  RH  042%=      5-min Rain = 0
KME1 142032Z 16009G14KT 33/19 A2992 RMK A01 T03310189  RH  043%=      5-min Rain = 0
KME1 142033Z 15010G15KT 33/19 A2992 RMK A01 T03310187  RH  043%=      5-min Rain = 0
KME1 142034Z 17011KT 33/19 A2992 RMK A01 T03300186  RH  043%=      5-min Rain = 0
KME1 142035Z 18011KT 33/19 A2992 RMK A01 T03290186  RH  043%=      5-min Rain = 0
KME1 142036Z 18012G17KT 33/19 A2992 RMK A01 T03290186  RH  043%=      5-min Rain = 0
KME1 142037Z 17008G13KT 33/19 A2992 RMK A01 T03300186  RH  043%=      5-min Rain = 0
KME1 142038Z 17012KT 33/19 A2992 RMK A01 T03320188  RH  042%=      5-min Rain = 0
KME1 142039Z 18013KT 33/19 A2992 RMK A01 T03340188  RH  042%=      5-min Rain = 0
KME1 142040Z 17010KT 33/19 A2992 RMK A01 T03320186  RH  042%=      5-min Rain = 0
KME1 142041Z 15010KT 33/19 A2992 RMK A01 T03280186  RH  043%=      5-min Rain = 0
KME1 142042Z 17009KT 33/19 A2992 RMK A01 T03260185  RH  043%=      5-min Rain = 0
KME1 142043Z 17011KT 33/19 A2992 RMK A01 T03260186  RH  043%=      5-min Rain = 0
KME1 142044Z 18010KT 32/18 A2991 RMK A01 T03240184  RH  044%=      5-min Rain = 0
KME1 142045Z 17010KT 32/18 A2991 RMK A01 T03220184  RH  044%=      5-min Rain = 0
KME1 142046Z 18010KT 32/18 A2991 RMK A01 T03190183  RH  044%=      5-min Rain = 0
KME1 142047Z 18011KT 32/18 A2991 RMK A01 T03170183  RH  045%=      5-min Rain = 0
KME1 142048Z 17011KT 32/18 A2991 RMK A01 T03160183  RH  045%=      5-min Rain = 0
KME1 142049Z 18009KT 32/18 A2991 RMK A01 T03160184  RH  045%=      5-min Rain = 0
KME1 142050Z 19009KT 32/18 A2991 RMK A01 T03170184  RH  045%=      5-min Rain = 0
KME1 142051Z 20010G15KT 32/19 A2991 RMK A01 T03180185  RH  045%=      5-min Rain = 0
KME1 142052Z 20010KT 32/18 A2991 RMK A01 T03190184  RH  045%=      5-min Rain = 0
KME1 142053Z 18010KT 32/19 A2991 RMK A01 T03200185  RH  045%=      5-min Rain = 0
KME1 142054Z 18009KT 32/19 A2991 RMK A01 T03230185  RH  044%=      5-min Rain = 0
KME1 142055Z 18011KT 32/18 A2991 RMK A01 T03230184  RH  044%=      5-min Rain = 0
KME1 142056Z 16011KT 32/18 A299 RMK A01 T03240183  RH  043%=      5-min Rain = 0
KME1 142057Z 18011G16KT 33/19 A299 RMK A01 T03260185  RH  043%=      5-min Rain = 0
KME1 142058Z 17009KT 33/18 A299 RMK A01 T03290183  RH  042%=      5-min Rain = 0
KME1 142059Z 20010KT 33/18 A299 RMK A01 T03280184  RH  042%=      5-min Rain = 0
KME1 142100Z 18008KT 33/18 A299 RMK A01 T03260184  RH  043%=      5-min Rain = 0
KME1 142101Z 17010KT 32/18 A299 RMK A01 T03240184  RH  044%=      5-min Rain = 0
KME1 142102Z 18008KT 32/19 A299 RMK A01 T03240186  RH  044%=      5-min Rain = 0
KME1 142103Z 17009KT 33/19 A299 RMK A01 T03270188  RH  044%=      5-min Rain = 0
KME1 142104Z 18011KT 33/19 A299 RMK A01 T03310190  RH  043%=      5-min Rain = 0
KME1 142105Z 19011KT 33/19 A299 RMK A01 T03310189  RH  043%=      5-min Rain = 0
KME1 142106Z 19009KT 33/19 A299 RMK A01 T03280186  RH  043%=      5-min Rain = 0
KME1 142107Z 20008G14KT 33/19 A299 RMK A01 T03260185  RH  043%=      5-min Rain = 0
KME1 142108Z 19012KT 33/19 A299 RMK A01 T03280185  RH  043%=      5-min Rain = 0
KME1 142109Z 18008KT 33/19 A299 RMK A01 T03280186  RH  043%=      5-min Rain = 0
KME1 142110Z 19008G13KT 33/19 A299 RMK A01 T03290186  RH  043%=      5-min Rain = 0
KME1 142111Z 18011KT 33/19 A2989 RMK A01 T03300185  RH  042%=      5-min Rain = 0
KME1 142112Z 18011KT 33/19 A2989 RMK A01 T03310185  RH  042%=      5-min Rain = 0
KME1 142113Z 18013G18KT 33/19 A2989 RMK A01 T03310185  RH  042%=      5-min Rain = 0
KME1 142114Z 19010KT 33/19 A2989 RMK A01 T03320186  RH  042%=      5-min Rain = 0
KME1 142115Z 19010G16KT 33/19 A2989 RMK A01 T03320186  RH  042%=      5-min Rain = 0
KME1 142116Z 18013KT 33/18 A2989 RMK A01 T03320184  RH  042%=      5-min Rain = 0
KME1 142117Z 18010KT 33/18 A2989 RMK A01 T03320183  RH  041%=      5-min Rain = 0
KME1 142118Z 18011G16KT 33/18 A2989 RMK A01 T03300184  RH  042%=      5-min Rain = 0
KME1 142119Z 18011KT 33/18 A2989 RMK A01 T03260181  RH  042%=      5-min Rain = 0
KME1 142120Z 19008KT 32/18 A2989 RMK A01 T03220181  RH  043%=      5-min Rain = 0
KME1 142121Z 16008KT 32/18 A2989 RMK A01 T03220181  RH  043%=      5-min Rain = 0
KME1 142122Z 17008KT 33/18 A2988 RMK A01 T03260182  RH  042%=      5-min Rain = 0
KME1 142123Z 17010KT 33/18 A2988 RMK A01 T03300183  RH  042%=      5-min Rain = 0
KME1 142124Z 18010KT 33/18 A2988 RMK A01 T03320183  RH  041%=      5-min Rain = 0
KME1 142125Z 20012KT 34/18 A2988 RMK A01 T03350184  RH  041%=      5-min Rain = 0
KME1 142126Z 19008KT 34/18 A2988 RMK A01 T03350184  RH  041%=      5-min Rain = 0
KME1 142127Z 19010KT 33/18 A2988 RMK A01 T03340184  RH  041%=      5-min Rain = 0
KME1 142128Z 18010KT 34/18 A2988 RMK A01 T03350184  RH  041%=      5-min Rain = 0
KME1 142129Z 18008KT 34/19 A2988 RMK A01 T03350185  RH  041%=      5-min Rain = 0
KME1 142130Z 19009G15KT 34/19 A2988 RMK A01 T03380185  RH  040%=      5-min Rain = 0
KME1 142131Z 20009G14KT 34/18 A2988 RMK A01 T03400183  RH  039%=      5-min Rain = 0
KME1 142132Z 19011KT 34/18 A2988 RMK A01 T03400183  RH  039%=      5-min Rain = 0
KME1 142133Z 17010G16KT 34/18 A2988 RMK A01 T03360181  RH  040%=      5-min Rain = 0
KME1 142134Z 18011KT 33/18 A2988 RMK A01 T03330181  RH  041%=      5-min Rain = 0
KME1 142135Z 18009KT 33/18 A2988 RMK A01 T03310180  RH  041%=      5-min Rain = 0
KME1 142136Z 18009KT 33/18 A2988 RMK A01 T03280180  RH  041%=      5-min Rain = 0
KME1 142137Z 16006KT 33/18 A2988 RMK A01 T03280181  RH  042%=      5-min Rain = 0
KME1 142138Z 17009KT 33/18 A2988 RMK A01 T03320182  RH  041%=      5-min Rain = 0
KME1 142139Z 18014G19KT 33/18 A2987 RMK A01 T03340183  RH  041%=      5-min Rain = 0
KME1 142140Z 20013KT 34/18 A2987 RMK A01 T03350181  RH  040%=      5-min Rain = 0
KME1 142141Z 20010G16KT 34/18 A2987 RMK A01 T03360181  RH  040%=      5-min Rain = 0
KME1 142142Z 19012KT 34/18 A2987 RMK A01 T03350180  RH  040%=      5-min Rain = 0
KME1 142143Z 20011G16KT 33/18 A2987 RMK A01 T03330181  RH  040%=      5-min Rain = 0
KME1 142144Z 19010KT 33/18 A2987 RMK A01 T03320180  RH  041%=      5-min Rain = 0
KME1 142145Z 16009KT 33/18 A2987 RMK A01 T03320180  RH  041%=      5-min Rain = 0
KME1 142146Z 18009KT 33/18 A2987 RMK A01 T03340180  RH  040%=      5-min Rain = 0
KME1 142147Z 17008KT 33/18 A2987 RMK A01 T03340180  RH  040%=      5-min Rain = 0
KME1 142148Z 16009KT 34/18 A2987 RMK A01 T03350182  RH  040%=      5-min Rain = 0
KME1 142149Z 15009KT 34/18 A2987 RMK A01 T03370183  RH  040%=      5-min Rain = 0
KME1 142150Z 16009KT 34/19 A2987 RMK A01 T03360185  RH  041%=      5-min Rain = 0
KME1 142151Z 18009KT 34/19 A2987 RMK A01 T03360186  RH  041%=      5-min Rain = 0
KME1 142152Z 18013KT 34/19 A2987 RMK A01 T03350186  RH  041%=      5-min Rain = 0
KME1 142153Z 17014KT 33/18 A2987 RMK A01 T03320183  RH  041%=      5-min Rain = 0
KME1 142154Z 17013KT 33/18 A2987 RMK A01 T03270182  RH  042%=      5-min Rain = 0
KME1 142155Z 16012KT 33/18 A2987 RMK A01 T03270182  RH  042%=      5-min Rain = 0
KME1 142156Z 17010G17KT 33/18 A2987 RMK A01 T03300184  RH  042%=      5-min Rain = 0
KME1 142157Z 18013KT 33/19 A2987 RMK A01 T03340185  RH  041%=      5-min Rain = 0
KME1 142158Z 18011KT 33/18 A2987 RMK A01 T03330184  RH  041%=      5-min Rain = 0
KME1 142159Z 17008KT 33/19 A2987 RMK A01 T03320185  RH  042%=      5-min Rain = 0
KME1 142200Z 16009KT 33/18 A2987 RMK A01 T03330184  RH  042%=      5-min Rain = 0
KME1 142201Z 15007KT 33/18 A2987 RMK A01 T03330183  RH  041%=      5-min Rain = 0
KME1 142202Z 17010G15KT 33/18 A2987 RMK A01 T03340184  RH  041%=      5-min Rain = 0
KME1 142203Z 17013KT 34/19 A2987 RMK A01 T03350186  RH  041%=      5-min Rain = 0
KME1 142204Z 16013KT 33/19 A2987 RMK A01 T03330185  RH  042%=      5-min Rain = 0
KME1 142205Z 15013KT 33/18 A2987 RMK A01 T03300183  RH  042%=      5-min Rain = 0
KME1 142206Z 15010KT 33/18 A2987 RMK A01 T03310184  RH  042%=      5-min Rain = 0
KME1 142207Z 15010KT 33/18 A2986 RMK A01 T03330184  RH  041%=      5-min Rain = 0
KME1 142208Z 14012KT 33/18 A2986 RMK A01 T03330184  RH  041%=      5-min Rain = 0
KME1 142209Z 14009KT 33/18 A2986 RMK A01 T03320184  RH  041%=      5-min Rain = 0
KME1 142210Z 17012KT 33/18 A2986 RMK A01 T03320184  RH  041%=      5-min Rain = 0
KME1 142211Z 16011G18KT 33/19 A2986 RMK A01 T03320185  RH  042%=      5-min Rain = 0
KME1 142212Z 16014G19KT 33/19 A2986 RMK A01 T03330187  RH  042%=      5-min Rain = 0
KME1 142213Z 14014KT 33/19 A2986 RMK A01 T03310191  RH  044%=      5-min Rain = 0
KME1 142214Z 14011KT 33/19 A2986 RMK A01 T03270192  RH  045%=      5-min Rain = 0
KME1 142215Z 17012G20KT 32/19 A2986 RMK A01 T03240192  RH  046%=      5-min Rain = 0
KME1 142216Z 17014KT 32/19 A2986 RMK A01 T03220191  RH  046%=      5-min Rain = 0
KME1 142217Z 16017G22KT 32/19 A2986 RMK A01 T03200191  RH  046%=      5-min Rain = 0
KME1 142218Z 15014KT 32/19 A2986 RMK A01 T03170191  RH  047%=      5-min Rain = 0
KME1 142219Z 15017KT 32/19 A2986 RMK A01 T03150191  RH  048%=      5-min Rain = 0
KME1 142220Z 16015KT 31/19 A2986 RMK A01 T03130191  RH  048%=      5-min Rain = 0
KME1 142221Z 14014KT 31/19 A2986 RMK A01 T03120191  RH  049%=      5-min Rain = 0
KME1 142222Z 14017KT 31/19 A2986 RMK A01 T03110191  RH  049%=      5-min Rain = 0
KME1 142223Z 14015KT 31/19 A2986 RMK A01 T03110190  RH  049%=      5-min Rain = 0
KME1 142224Z 14014KT 31/19 A2986 RMK A01 T03120191  RH  049%=      5-min Rain = 0
KME1 142225Z 16011KT 31/19 A2986 RMK A01 T03140192  RH  048%=      5-min Rain = 0
KME1 142226Z 15011G17KT 32/19 A2986 RMK A01 T03180193  RH  047%=      5-min Rain = 0
KME1 142227Z 15015KT 32/19 A2986 RMK A01 T03230193  RH  046%=      5-min Rain = 0
KME1 142228Z 16017KT 32/19 A2986 RMK A01 T03240193  RH  046%=      5-min Rain = 0
KME1 142229Z 16014KT 32/19 A2986 RMK A01 T03220192  RH  046%=      5-min Rain = 0
KME1 142230Z 15015KT 32/19 A2985 RMK A01 T03210191  RH  046%=      5-min Rain = 0
KME1 142231Z 15015KT 32/19 A2985 RMK A01 T03210191  RH  046%=      5-min Rain = 0
KME1 142232Z 15015KT 32/19 A2985 RMK A01 T03190190  RH  046%=      5-min Rain = 0
KME1 142233Z 14015G20KT 32/19 A2985 RMK A01 T03170190  RH  047%=      5-min Rain = 0
KME1 142234Z 16012KT 32/19 A2985 RMK A01 T03160191  RH  047%=      5-min Rain = 0
KME1 142235Z 16013G21KT 32/19 A2985 RMK A01 T03180192  RH  047%=      5-min Rain = 0
KME1 142236Z 17020KT 32/19 A2985 RMK A01 T03210191  RH  046%=      5-min Rain = 0
KME1 142237Z 16017KT 32/19 A2985 RMK A01 T03190191  RH  047%=      5-min Rain = 0
KME1 142238Z 16017G25KT 32/19 A2985 RMK A01 T03170191  RH  047%=      5-min Rain = 0
KME1 142239Z 16014G19KT 32/19 A2985 RMK A01 T03150190  RH  048%=      5-min Rain = 0
KME1 142240Z 17016G21KT 32/19 A2985 RMK A01 T03150190  RH  048%=      5-min Rain = 0
KME1 142241Z 17015G20KT 32/19 A2985 RMK A01 T03160190  RH  047%=      5-min Rain = 0
KME1 142242Z 17016G24KT 32/19 A2985 RMK A01 T03170190  RH  047%=      5-min Rain = 0
KME1 142243Z 16015KT 32/19 A2985 RMK A01 T03160190  RH  047%=      5-min Rain = 0
KME1 142244Z 17015KT 32/19 A2985 RMK A01 T03150189  RH  047%=      5-min Rain = 0
KME1 142245Z 18013KT 31/19 A2985 RMK A01 T03130189  RH  048%=      5-min Rain = 0
KME1 142246Z 18012G17KT 31/19 A2985 RMK A01 T03130189  RH  048%=      5-min Rain = 0
KME1 142247Z 18015G23KT 31/19 A2985 RMK A01 T03130189  RH  048%=      5-min Rain = 0
KME1 142248Z 18018G23KT 31/19 A2985 RMK A01 T03130190  RH  048%=      5-min Rain = 0
KME1 142249Z 18016G21KT 31/19 A2985 RMK A01 T03120190  RH  048%=      5-min Rain = 0
KME1 142250Z 17021KT 31/19 A2985 RMK A01 T03100190  RH  049%=      5-min Rain = 0
KME1 142251Z 17021KT 31/19 A2985 RMK A01 T03080190  RH  049%=      5-min Rain = 0
KME1 142252Z 17020G26KT 31/19 A2985 RMK A01 T03060190  RH  050%=      5-min Rain = 0
KME1 142253Z 17020KT 31/19 A2985 RMK A01 T03050190  RH  050%=      5-min Rain = 0
KME1 142254Z 17016KT 30/19 A2985 RMK A01 T03040190  RH  050%=      5-min Rain = 0
KME1 142255Z 17018G25KT 31/19 A2985 RMK A01 T03060190  RH  050%=      5-min Rain = 0
KME1 142256Z 17018KT 31/19 A2985 RMK A01 T03080190  RH  050%=      5-min Rain = 0
KME1 142257Z 17017G23KT 31/19 A2985 RMK A01 T03090191  RH  049%=      5-min Rain = 0
KME1 142258Z 18019KT 31/19 A2985 RMK A01 T03090191  RH  049%=      5-min Rain = 0
KME1 142259Z 18016G21KT 31/19 A2985 RMK A01 T03080191  RH  050%=      5-min Rain = 0
KME1 142300Z 18015KT 31/19 A2985 RMK A01 T03090191  RH  050%=      5-min Rain = 0
KME1 142301Z 17012KT 31/19 A2985 RMK A01 T03100192  RH  050%=      5-min Rain = 0
KME1 142302Z 18015G20KT 31/19 A2985 RMK A01 T03120193  RH  049%=      5-min Rain = 0
KME1 142303Z 17018KT 31/19 A2985 RMK A01 T03130192  RH  049%=      5-min Rain = 0
KME1 142304Z 17015KT 31/19 A2985 RMK A01 T03130192  RH  049%=      5-min Rain = 0
KME1 142305Z 19015G21KT 31/19 A2985 RMK A01 T03120192  RH  049%=      5-min Rain = 0
KME1 142306Z 18018KT 31/19 A2985 RMK A01 T03110192  RH  049%=      5-min Rain = 0
KME1 142307Z 17014KT 31/19 A2985 RMK A01 T03100191  RH  049%=      5-min Rain = 0
KME1 142308Z 17012G17KT 31/19 A2985 RMK A01 T03100192  RH  050%=      5-min Rain = 0
KME1 142309Z 17015G21KT 31/19 A2985 RMK A01 T03120193  RH  049%=      5-min Rain = 0
KME1 142310Z 18014G20KT 31/19 A2985 RMK A01 T03130193  RH  049%=      5-min Rain = 0
KME1 142311Z 18019G25KT 31/19 A2985 RMK A01 T03130192  RH  049%=      5-min Rain = 0
KME1 142312Z 18019G24KT 31/19 A2985 RMK A01 T03110191  RH  049%=      5-min Rain = 0
KME1 142313Z 18017KT 31/19 A2985 RMK A01 T03100191  RH  049%=      5-min Rain = 0
KME1 142314Z 17020G26KT 31/19 A2985 RMK A01 T03090191  RH  049%=      5-min Rain = 0
KME1 142315Z 17020KT 31/19 A2985 RMK A01 T03090191  RH  049%=      5-min Rain = 0
KME1 142316Z 18018KT 31/19 A2985 RMK A01 T03070190  RH  050%=      5-min Rain = 0
KME1 142317Z 17019KT 31/19 A2985 RMK A01 T03060191  RH  050%=      5-min Rain = 0
KME1 142318Z 17017KT 31/19 A2985 RMK A01 T03060191  RH  050%=      5-min Rain = 0
KME1 142319Z 17020KT 31/19 A2985 RMK A01 T03070191  RH  050%=      5-min Rain = 0
KME1 142320Z 17017KT 31/19 A2985 RMK A01 T03070191  RH  050%=      5-min Rain = 0
KME1 142321Z 17017G23KT 31/19 A2985 RMK A01 T03070191  RH  050%=      5-min Rain = 0
KME1 142322Z 17018G23KT 31/19 A2985 RMK A01 T03070191  RH  050%=      5-min Rain = 0
KME1 142323Z 17012KT 31/19 A2985 RMK A01 T03070191  RH  050%=      5-min Rain = 0
KME1 142324Z 16015G22KT 31/19 A2985 RMK A01 T03070192  RH  050%=      5-min Rain = 0
KME1 142325Z 16014G20KT 31/19 A2985 RMK A01 T03080192  RH  050%=      5-min Rain = 0
KME1 142326Z 17013G18KT 31/19 A2985 RMK A01 T03080192  RH  050%=      5-min Rain = 0
KME1 142327Z 17017KT 31/19 A2985 RMK A01 T03090192  RH  050%=      5-min Rain = 0
KME1 142328Z 16020KT 31/19 A2985 RMK A01 T03100192  RH  049%=      5-min Rain = 0
KME1 142329Z 17016G22KT 31/19 A2985 RMK A01 T03080192  RH  050%=      5-min Rain = 0
KME1 142330Z 16018G24KT 31/19 A2985 RMK A01 T03070192  RH  050%=      5-min Rain = 0
KME1 142331Z 16020G27KT 31/19 A2986 RMK A01 T03070192  RH  050%=      5-min Rain = 0
KME1 142332Z 16021KT 31/19 A2986 RMK A01 T03070192  RH  050%=      5-min Rain = 0
KME1 142333Z 17015KT 31/19 A2986 RMK A01 T03050192  RH  051%=      5-min Rain = 0
KME1 142334Z 16012KT 31/19 A2986 RMK A01 T03050192  RH  051%=      5-min Rain = 0
KME1 142335Z 16013G22KT 31/19 A2987 RMK A01 T03080193  RH  050%=      5-min Rain = 0
KME1 142336Z 16016G23KT 31/19 A2987 RMK A01 T03090193  RH  050%=      5-min Rain = 0
KME1 142337Z 17015G21KT 31/19 A2987 RMK A01 T03100192  RH  049%=      5-min Rain = 0
KME1 142338Z 16015G20KT 31/19 A2987 RMK A01 T03100192  RH  050%=      5-min Rain = 0
KME1 142339Z 16013G21KT 31/19 A2987 RMK A01 T03090192  RH  050%=      5-min Rain = 0
KME1 142340Z 16015KT 31/19 A2987 RMK A01 T03090193  RH  050%=      5-min Rain = 0
KME1 142341Z 17016G22KT 31/19 A2987 RMK A01 T03100193  RH  050%=      5-min Rain = 0
KME1 142342Z 17019G24KT 31/19 A2987 RMK A01 T03100192  RH  049%=      5-min Rain = 0
KME1 142343Z 17019KT 31/19 A2987 RMK A01 T03100192  RH  049%=      5-min Rain = 0
KME1 142344Z 17015G20KT 31/19 A2987 RMK A01 T03080192  RH  050%=      5-min Rain = 0
KME1 142345Z 17015KT 31/19 A2987 RMK A01 T03080192  RH  050%=      5-min Rain = 0
KME1 142346Z 16014KT 31/19 A2987 RMK A01 T03080192  RH  050%=      5-min Rain = 0
KME1 142347Z 17015G21KT 31/19 A2987 RMK A01 T03080192  RH  050%=      5-min Rain = 0
KME1 142348Z 18013KT 31/19 A2987 RMK A01 T03090192  RH  050%=      5-min Rain = 0
KME1 142349Z 17011G16KT 31/19 A2987 RMK A01 T03100192  RH  049%=      5-min Rain = 0
KME1 142350Z 16014KT 31/19 A2987 RMK A01 T03120192  RH  049%=      5-min Rain = 0
KME1 142351Z 16013G20KT 31/19 A2987 RMK A01 T03120193  RH  049%=      5-min Rain = 0
KME1 142352Z 15017G22KT 31/19 A2987 RMK A01 T03120193  RH  049%=      5-min Rain = 0
KME1 142353Z 16017KT 31/19 A2987 RMK A01 T03110193  RH  049%=      5-min Rain = 0
KME1 142354Z 17016KT 31/19 A2987 RMK A01 T03090193  RH  050%=      5-min Rain = 0
KME1 142355Z 15015G21KT 31/19 A2987 RMK A01 T03070192  RH  050%=      5-min Rain = 0
KME1 142356Z 16016KT 31/19 A2987 RMK A01 T03060192  RH  051%=      5-min Rain = 0
KME1 142357Z 17014KT 31/19 A2988 RMK A01 T03050193  RH  051%=      5-min Rain = 0
KME1 142358Z 17018KT 31/19 A2988 RMK A01 T03050193  RH  051%=      5-min Rain = 0
KME1 142359Z 17012G19KT 30/19 A2988 RMK A01 T03030192  RH  052%=      5-min Rain = 0
KME1 150000Z 16015KT 30/19 A2988 RMK A01 T03020192  RH  052%=      5-min Rain = 0
KME1 150001Z 17011G17KT 30/19 A2989 RMK A01 T03010192  RH  052%=      5-min Rain = 0
KME1 150002Z 17012G17KT 30/19 A2989 RMK A01 T03030192  RH  052%=      5-min Rain = 0
KME1 150003Z 16009G17KT 30/19 A2989 RMK A01 T03020192  RH  052%=      5-min Rain = 0
KME1 150004Z 15010KT 30/19 A299 RMK A01 T03030192  RH  051%=      5-min Rain = 0
KME1 150005Z 14008KT 30/19 A299 RMK A01 T03030192  RH  051%=      5-min Rain = 0
KME1 150006Z 13006KT 30/19 A2991 RMK A01 T03040192  RH  051%=      5-min Rain = 0
KME1 150007Z 05012G19KT 30/19 A2992 RMK A01 T03030189  RH  051%=      5-min Rain = 0
KME1 150008Z 02016G21KT 29/16 A2993 RMK A01 T02900156  RH  044%=      5-min Rain = 0
KME1 150009Z 03017KT 26/14 A2993 RMK A01 T02640144  RH  048%=      5-min Rain = 0
KME1 150010Z 02014KT 25/14 A2993 RMK A01 T02460142  RH  052%=      5-min Rain = 0
KME1 150011Z 02009G15KT 24/14 A2993 RMK A01 T02360143  RH  056%=      5-min Rain = 0
KME1 150012Z 03010G18KT 23/15 A2993 RMK A01 T02310145  RH  058%=      5-min Rain = 0
KME1 150013Z 01012KT 23/15 A2993 RMK A01 T02290146  RH  060%=      5-min Rain = 0
KME1 150014Z 03012KT 23/15 A2993 RMK A01 T02270147  RH  061%=      5-min Rain = 0
KME1 150015Z 03009KT 23/15 A2993 RMK A01 T02250147  RH  061%=      5-min Rain = 0
KME1 150016Z 02008G13KT 22/15 A2993 RMK A01 T02240148  RH  062%=      5-min Rain = 0
KME1 150017Z 03006KT 22/15 A2993 RMK A01 T02240148  RH  062%=      5-min Rain = 0
KME1 150018Z 03008G15KT 22/15 A2993 RMK A01 T02230148  RH  063%=      5-min Rain = 0
KME1 150019Z 02009KT 22/15 A2993 RMK A01 T02230145  RH  062%=      5-min Rain = 0
KME1 150020Z 03010G15KT 22/14 A2992 RMK A01 T02240144  RH  060%=      5-min Rain = 0
KME1 150021Z 03006KT 23/14 A2992 RMK A01 T02270143  RH  059%=      5-min Rain = 0
KME1 150022Z 07005KT 23/14 A2992 RMK A01 T02280144  RH  059%=      5-min Rain = 0
KME1 150023Z 10002KT 23/14 A2992 RMK A01 T02280143  RH  059%=      5-min Rain = 0
KME1 150024Z 04003KT 23/14 A2992 RMK A01 T02280144  RH  059%=      5-min Rain = 0
KME1 150025Z 02008G14KT 23/14 A2993 RMK A01 T02280143  RH  058%=      5-min Rain = 0
KME1 150026Z 03009G16KT 23/14 A2993 RMK A01 T02300140  RH  057%=      5-min Rain = 0
KME1 150027Z 05005G10KT 23/14 A2992 RMK A01 T02310139  RH  056%=      5-min Rain = 0
KME1 150028Z 03006G12KT 23/14 A2992 RMK A01 T02310139  RH  056%=      5-min Rain = 0
KME1 150029Z 05008G14KT 23/14 A2992 RMK A01 T02310137  RH  055%=      5-min Rain = 0
KME1 150030Z 03011KT 23/14 A2992 RMK A01 T02310136  RH  055%=      5-min Rain = 0
KME1 150031Z 04010KT 23/14 A2992 RMK A01 T02310136  RH  055%=      5-min Rain = 0
KME1 150032Z 07010G15KT 23/14 A2992 RMK A01 T02310137  RH  055%=      5-min Rain = 0
KME1 150033Z 06009KT 23/14 A2993 RMK A01 T02300140  RH  057%=      5-min Rain = 0
KME1 150034Z 05014KT 23/14 A2993 RMK A01 T02260140  RH  058%=      5-min Rain = 0
KME1 150035Z 04014KT 23/14 A2994 RMK A01 T02250141  RH  059%=      5-min Rain = 0
KME1 150036Z 02013KT 22/14 A2994 RMK A01 T02240143  RH  060%=      5-min Rain = 0
KME1 150037Z 02014G19KT 22/15 A2995 RMK A01 T02240147  RH  062%=      5-min Rain = 0
KME1 150038Z 04015KT 22/15 A2995 RMK A01 T02230150  RH  063%=      5-min Rain = 0
KME1 150039Z 03010G15KT 22/15 A2995 RMK A01 T02210152  RH  065%=      5-min Rain = 0
KME1 150040Z 03010KT 22/15 A2996 RMK A01 T02190153  RH  066%=      5-min Rain = 0
KME1 150041Z 03011KT 22/15 A2995 RMK A01 T02170154  RH  067%=      5-min Rain = 0
KME1 150042Z 04007KT 22/16 A2995 RMK A01 T02170155  RH  068%=      5-min Rain = 0
KME1 150043Z 04006KT 22/16 A2995 RMK A01 T02160155  RH  068%=      5-min Rain = 0
KME1 150044Z 05006KT 22/16 A2995 RMK A01 T02170155  RH  068%=      5-min Rain = 0
KME1 150045Z 03007KT 22/16 A2994 RMK A01 T02170157  RH  069%=      5-min Rain = 0
KME1 150046Z 03008KT 22/16 A2994 RMK A01 T02160157  RH  069%=      5-min Rain = 0
KME1 150047Z 02004KT 22/16 A2994 RMK A01 T02150157  RH  070%=      5-min Rain = 0
KME1 150048Z 05003KT 22/16 A2994 RMK A01 T02150158  RH  070%=      5-min Rain = 0
KME1 150049Z 07006KT 22/16 A2994 RMK A01 T02150158  RH  070%=      5-min Rain = 0
KME1 150050Z 08006KT 22/16 A2994 RMK A01 T02150159  RH  071%=      5-min Rain = 0
KME1 150051Z 08003KT 22/16 A2994 RMK A01 T02150161  RH  071%=      5-min Rain = 0
KME1 150052Z 07005KT 21/16 A2995 RMK A01 T02140161  RH  072%=      5-min Rain = 0
KME1 150053Z 07004G10KT 21/16 A2995 RMK A01 T02140161  RH  072%=      5-min Rain = 0
KME1 150054Z 04010KT 22/16 A2995 RMK A01 T02150162  RH  072%=      5-min Rain = 0
KME1 150055Z 04008KT 22/16 A2995 RMK A01 T02150161  RH  071%=      5-min Rain = 0
KME1 150056Z 08005KT 22/16 A2996 RMK A01 T02150161  RH  071%=      5-min Rain = 0
KME1 150057Z 08004KT 22/16 A2996 RMK A01 T02160162  RH  071%=      5-min Rain = 0
KME1 150058Z 09007KT 22/16 A2996 RMK A01 T02160162  RH  071%=      5-min Rain = 0
KME1 150059Z 08004KT 22/16 A2996 RMK A01 T02160162  RH  071%=      5-min Rain = 0
KME1 150100Z 06007KT 22/16 A2996 RMK A01 T02160162  RH  071%=      5-min Rain = 0
KME1 150101Z 05007KT 22/16 A2995 RMK A01 T02160161  RH  071%=      5-min Rain = 0
KME1 150102Z 08003KT 22/16 A2996 RMK A01 T02160161  RH  071%=      5-min Rain = 0
KME1 150103Z 10004KT 22/16 A2996 RMK A01 T02160162  RH  071%=      5-min Rain = 0
KME1 150104Z 07006KT 22/16 A2996 RMK A01 T02150162  RH  072%=      5-min Rain = 0
KME1 150105Z 06006KT 22/16 A2996 RMK A01 T02150162  RH  072%=      5-min Rain = 0
KME1 150106Z 06006KT 21/16 A2996 RMK A01 T02140163  RH  072%=      5-min Rain = 0
KME1 150107Z 03004KT 21/16 A2997 RMK A01 T02130162  RH  073%=      5-min Rain = 0
KME1 150108Z 03005KT 21/16 A2997 RMK A01 T02140162  RH  073%=      5-min Rain = 0
KME1 150109Z 04006KT 21/16 A2997 RMK A01 T02140163  RH  073%=      5-min Rain = 0
KME1 150110Z 02005KT 21/16 A2997 RMK A01 T02140163  RH  073%=      5-min Rain = 0
KME1 150111Z 01006KT 21/16 A2997 RMK A01 T02140163  RH  073%=      5-min Rain = 0
KME1 150112Z 35008KT 21/16 A2997 RMK A01 T02140163  RH  073%=      5-min Rain = 0
KME1 150113Z 36010KT 21/16 A2997 RMK A01 T02140164  RH  073%=      5-min Rain = 0
KME1 150114Z 01008KT 21/16 A2997 RMK A01 T02130164  RH  074%=      5-min Rain = 0
KME1 150115Z 35008KT 21/17 A2997 RMK A01 T02130165  RH  074%=      5-min Rain = 0
KME1 150116Z 35009KT 21/16 A2997 RMK A01 T02120164  RH  074%=      5-min Rain = 0
KME1 150117Z 35010KT 21/17 A2997 RMK A01 T02110165  RH  075%=      5-min Rain = 0
KME1 150118Z 35010KT 21/17 A2997 RMK A01 T02110165  RH  075%=      5-min Rain = 0
KME1 150119Z 35009KT 21/16 A2997 RMK A01 T02110164  RH  075%=      5-min Rain = 0
KME1 150120Z 00006KT 21/16 A2997 RMK A01 T02110164  RH  075%=      5-min Rain = 0
KME1 150121Z 01006KT 21/16 A2996 RMK A01 T02100164  RH  075%=      5-min Rain = 0
KME1 150122Z 02003KT 21/16 A2996 RMK A01 T02100163  RH  074%=      5-min Rain = 0
KME1 150123Z 05003KT 21/16 A2996 RMK A01 T02100163  RH  075%=      5-min Rain = 0
KME1 150124Z 08001KT 21/16 A2996 RMK A01 T02100163  RH  075%=      5-min Rain = 0
KME1 150125Z 14003KT 21/16 A2996 RMK A01 T02090163  RH  075%=      5-min Rain = 0
KME1 150126Z 14003KT 21/16 A2996 RMK A01 T02090163  RH  075%=      5-min Rain = 0
KME1 150127Z 16002KT 21/16 A2996 RMK A01 T02100162  RH  074%=      5-min Rain = 0
KME1 150128Z 09001KT 21/16 A2997 RMK A01 T02100162  RH  074%=      5-min Rain = 0
KME1 150129Z 36002KT 21/16 A2997 RMK A01 T02110163  RH  074%=      5-min Rain = 0
KME1 150130Z 01003KT 21/16 A2997 RMK A01 T02110162  RH  074%=      5-min Rain = 0
KME1 150131Z 02005KT 21/16 A2997 RMK A01 T02110162  RH  074%=      5-min Rain = 0
KME1 150132Z 04005KT 21/16 A2997 RMK A01 T02110162  RH  073%=      5-min Rain = 0
KME1 150133Z 03006KT 21/16 A2997 RMK A01 T02110162  RH  073%=      5-min Rain = 0
KME1 150134Z 02005KT 21/16 A2996 RMK A01 T02110162  RH  073%=      5-min Rain = 0
KME1 150135Z 03004KT 21/16 A2996 RMK A01 T02110161  RH  073%=      5-min Rain = 0
KME1 150136Z 05003KT 21/16 A2997 RMK A01 T02110161  RH  073%=      5-min Rain = 0
KME1 150137Z 05003KT 21/16 A2997 RMK A01 T02110161  RH  073%=      5-min Rain = 0
KME1 150138Z 05002KT 21/16 A2997 RMK A01 T02120161  RH  073%=      5-min Rain = 0
KME1 150139Z 11001KT 21/16 A2997 RMK A01 T02120161  RH  073%=      5-min Rain = 0
KME1 150140Z 14000KT 21/16 A2997 RMK A01 T02120161  RH  073%=      5-min Rain = 0
KME1 150141Z 12001KT 21/16 A2997 RMK A01 T02110161  RH  073%=      5-min Rain = 0
KME1 150142Z 11001KT 21/16 A2997 RMK A01 T02120161  RH  073%=      5-min Rain = 0
KME1 150143Z 10000KT 21/16 A2997 RMK A01 T02120160  RH  072%=      5-min Rain = 0
KME1 150144Z 09000KT 21/16 A2997 RMK A01 T02120161  RH  072%=      5-min Rain = 0
KME1 150145Z 07001KT 21/16 A2997 RMK A01 T02120160  RH  072%=      5-min Rain = 0
KME1 150146Z 07003KT 21/16 A2997 RMK A01 T02120160  RH  072%=      5-min Rain = 0
KME1 150147Z 07005KT 21/16 A2997 RMK A01 T02110159  RH  072%=      5-min Rain = 0
KME1 150148Z 09005KT 21/16 A2997 RMK A01 T02110159  RH  072%=      5-min Rain = 0
KME1 150149Z 10005KT 21/16 A2997 RMK A01 T02110159  RH  072%=      5-min Rain = 0
KME1 150150Z 09007KT 21/16 A2997 RMK A01 T02110160  RH  073%=      5-min Rain = 0
KME1 150151Z 09005KT 21/16 A2997 RMK A01 T02100159  RH  073%=      5-min Rain = 0
KME1 150152Z 08003KT 21/16 A2997 RMK A01 T02100160  RH  073%=      5-min Rain = 0
KME1 150153Z 08002KT 21/16 A2997 RMK A01 T02100160  RH  073%=      5-min Rain = 0
KME1 150154Z 04002KT 21/16 A2996 RMK A01 T02100160  RH  073%=      5-min Rain = 0
KME1 150155Z 03003KT 21/16 A2996 RMK A01 T02100160  RH  073%=      5-min Rain = 0
KME1 150156Z 04003KT 21/16 A2996 RMK A01 T02090161  RH  074%=      5-min Rain = 0
KME1 150157Z 05003KT 21/16 A2996 RMK A01 T02090161  RH  074%=      5-min Rain = 0
KME1 150158Z 06003KT 21/16 A2996 RMK A01 T02090161  RH  074%=      5-min Rain = 0
KME1 150159Z 07003KT 21/16 A2996 RMK A01 T02090160  RH  074%=      5-min Rain = 0
KME1 150200Z 10002KT 21/16 A2996 RMK A01 T02080160  RH  074%=      5-min Rain = 0
KME1 150201Z 12004KT 21/16 A2997 RMK A01 T02080161  RH  074%=      5-min Rain = 0
KME1 150202Z 14007KT 21/16 A2997 RMK A01 T02080161  RH  075%=      5-min Rain = 0
KME1 150203Z 14007KT 21/16 A2997 RMK A01 T02080162  RH  075%=      5-min Rain = 0
KME1 150204Z 14007KT 21/17 A2997 RMK A01 T02070166  RH  077%=      5-min Rain = 0
KME1 150205Z 14005KT 21/17 A2997 RMK A01 T02070168  RH  079%=      5-min Rain = 0
KME1 150206Z 16004KT 21/17 A2996 RMK A01 T02060169  RH  079%=      5-min Rain = 0
KME1 150207Z 15004KT 21/17 A2996 RMK A01 T02050169  RH  080%=      5-min Rain = 0
KME1 150208Z 16004KT 20/17 A2996 RMK A01 T02040170  RH  081%=      5-min Rain = 0
KME1 150209Z 18004KT 20/17 A2996 RMK A01 T02040170  RH  081%=      5-min Rain = 0
KME1 150210Z 18004KT 20/17 A2996 RMK A01 T02030170  RH  081%=      5-min Rain = 0
KME1 150211Z 18004KT 20/17 A2996 RMK A01 T02030170  RH  081%=      5-min Rain = 0
KME1 150212Z 18005KT 20/17 A2997 RMK A01 T02020170  RH  082%=      5-min Rain = 0
KME1 150213Z 18005KT 20/17 A2997 RMK A01 T02020170  RH  082%=      5-min Rain = 0
KME1 150214Z 18005KT 20/17 A2997 RMK A01 T02020170  RH  082%=      5-min Rain = 0
KME1 150215Z 18005KT 20/17 A2997 RMK A01 T02020170  RH  082%=      5-min Rain = 0
KME1 150216Z 19004KT 20/17 A2996 RMK A01 T02020171  RH  082%=      5-min Rain = 0
KME1 150217Z 18004KT 20/17 A2996 RMK A01 T02020171  RH  082%=      5-min Rain = 0
KME1 150218Z 16004KT 20/17 A2997 RMK A01 T02020171  RH  082%=      5-min Rain = 0
KME1 150219Z 16005KT 20/17 A2997 RMK A01 T02020170  RH  082%=      5-min Rain = 0
KME1 150220Z 16004KT 20/17 A2996 RMK A01 T02020170  RH  082%=      5-min Rain = 0
KME1 150221Z 13004KT 20/17 A2996 RMK A01 T02020170  RH  082%=      5-min Rain = 0
KME1 150222Z 15004KT 20/17 A2996 RMK A01 T02010171  RH  083%=      5-min Rain = 0
KME1 150223Z 14005KT 20/17 A2996 RMK A01 T02010171  RH  083%=      5-min Rain = 0
KME1 150224Z 14005KT 20/17 A2997 RMK A01 T02000171  RH  083%=      5-min Rain = 0
KME1 150225Z 13004KT 20/17 A2997 RMK A01 T02000172  RH  084%=      5-min Rain = 0
KME1 150226Z 13004KT 20/17 A2997 RMK A01 T02000171  RH  084%=      5-min Rain = 0
KME1 150227Z 14003KT 20/17 A2997 RMK A01 T02000172  RH  084%=      5-min Rain = 0
KME1 150228Z 15003KT 20/17 A2997 RMK A01 T01990171  RH  084%=      5-min Rain = 0
KME1 150229Z 14005KT 20/17 A2997 RMK A01 T01990172  RH  084%=      5-min Rain = 0
KME1 150230Z 14005KT 20/17 A2997 RMK A01 T01990172  RH  084%=      5-min Rain = 0
KME1 150231Z 14004KT 20/17 A2997 RMK A01 T01990172  RH  084%=      5-min Rain = 0
KME1 150232Z 15004KT 20/17 A2997 RMK A01 T01990172  RH  084%=      5-min Rain = 0
KME1 150233Z 16004KT 20/17 A2997 RMK A01 T01990172  RH  084%=      5-min Rain = 0
KME1 150234Z 15007KT 20/17 A2997 RMK A01 T01990173  RH  085%=      5-min Rain = 0
KME1 150235Z 16006KT 20/17 A2997 RMK A01 T01990172  RH  085%=      5-min Rain = 0
KME1 150236Z 16005KT 20/17 A2997 RMK A01 T02000173  RH  085%=      5-min Rain = 0
KME1 150237Z 16005KT 20/17 A2997 RMK A01 T02000173  RH  084%=      5-min Rain = 0
KME1 150238Z 14004KT 20/17 A2997 RMK A01 T02000173  RH  084%=      5-min Rain = 0
KME1 150239Z 15004KT 20/17 A2997 RMK A01 T02000173  RH  084%=      5-min Rain = 0
KME1 150240Z 17003KT 20/17 A2997 RMK A01 T02000173  RH  084%=      5-min Rain = 0
KME1 150241Z 15004KT 20/17 A2997 RMK A01 T02010173  RH  084%=      5-min Rain = 0
KME1 150242Z 16002KT 20/17 A2997 RMK A01 T02010173  RH  084%=      5-min Rain = 0
KME1 150243Z 15003KT 20/17 A2997 RMK A01 T02010173  RH  084%=      5-min Rain = 0
KME1 150244Z 16003KT 20/17 A2997 RMK A01 T02010173  RH  084%=      5-min Rain = 0
KME1 150245Z 15004KT 20/17 A2997 RMK A01 T02010173  RH  084%=      5-min Rain = 0
KME1 150246Z 14005KT 20/17 A2997 RMK A01 T02010173  RH  084%=      5-min Rain = 0
KME1 150247Z 14003KT 20/17 A2997 RMK A01 T02010173  RH  084%=      5-min Rain = 0
KME1 150248Z 16002KT 20/17 A2997 RMK A01 T02010174  RH  084%=      5-min Rain = 0
KME1 150249Z 14001KT 20/17 A2997 RMK A01 T02020174  RH  084%=      5-min Rain = 0
KME1 150250Z 17001KT 20/17 A2996 RMK A01 T02020173  RH  084%=      5-min Rain = 0
KME1 150251Z 15002KT 20/17 A2996 RMK A01 T02020173  RH  084%=      5-min Rain = 0
KME1 150252Z 13003KT 20/17 A2996 RMK A01 T02020172  RH  083%=      5-min Rain = 0
KME1 150253Z 17002KT 20/17 A2996 RMK A01 T02020172  RH  083%=      5-min Rain = 0
KME1 150254Z 16001KT 20/17 A2996 RMK A01 T02020172  RH  083%=      5-min Rain = 0
KME1 150255Z 15001KT 20/17 A2996 RMK A01 T02020172  RH  083%=      5-min Rain = 0
KME1 150256Z 17000KT 20/17 A2996 RMK A01 T02020172  RH  083%=      5-min Rain = 0
KME1 150257Z 20001KT 20/17 A2996 RMK A01 T02030172  RH  083%=      5-min Rain = 0
KME1 150258Z 21002KT 20/17 A2996 RMK A01 T02020171  RH  082%=      5-min Rain = 0
KME1 150259Z 19002KT 20/17 A2996 RMK A01 T02020171  RH  082%=      5-min Rain = 0
KME1 150300Z 20002KT 20/17 A2996 RMK A01 T02030171  RH  082%=      5-min Rain = 0
KME1 150301Z 21003KT 20/17 A2996 RMK A01 T02030171  RH  082%=      5-min Rain = 0
KME1 150302Z 20004KT 20/17 A2996 RMK A01 T02040171  RH  082%=      5-min Rain = 0
KME1 150303Z 21004KT 20/17 A2996 RMK A01 T02040171  RH  081%=      5-min Rain = 0
KME1 150304Z 21003KT 20/17 A2996 RMK A01 T02040171  RH  081%=      5-min Rain = 0
KME1 150305Z 19004KT 20/17 A2996 RMK A01 T02040171  RH  081%=      5-min Rain = 0
KME1 150306Z 18005KT 21/17 A2996 RMK A01 T02050170  RH  081%=      5-min Rain = 0
KME1 150307Z 17005KT 21/17 A2996 RMK A01 T02050170  RH  080%=      5-min Rain = 0
KME1 150308Z 16007KT 21/17 A2995 RMK A01 T02070170  RH  079%=      5-min Rain = 0
KME1 150309Z 17006KT 21/17 A2995 RMK A01 T02080170  RH  078%=      5-min Rain = 0
KME1 150310Z 17006KT 21/17 A2995 RMK A01 T02090169  RH  078%=      5-min Rain = 0
KME1 150311Z 16007KT 21/17 A2995 RMK A01 T02100168  RH  077%=      5-min Rain = 0
KME1 150312Z 16007KT 21/17 A2995 RMK A01 T02120168  RH  076%=      5-min Rain = 0
KME1 150313Z 16006KT 21/17 A2995 RMK A01 T02130168  RH  075%=      5-min Rain = 0
KME1 150314Z 15007KT 21/17 A2995 RMK A01 T02140168  RH  075%=      5-min Rain = 0
KME1 150315Z 15005KT 22/17 A2995 RMK A01 T02150168  RH  074%=      5-min Rain = 0
KME1 150316Z 12005KT 22/17 A2996 RMK A01 T02160168  RH  074%=      5-min Rain = 0
KME1 150317Z 09004KT 22/17 A2996 RMK A01 T02160168  RH  074%=      5-min Rain = 0
KME1 150318Z 08003KT 22/17 A2996 RMK A01 T02160168  RH  074%=      5-min Rain = 0
KME1 150319Z 09002KT 22/17 A2996 RMK A01 T02150168  RH  075%=      5-min Rain = 0
KME1 150320Z 09002KT 21/17 A2996 RMK A01 T02140168  RH  075%=      5-min Rain = 0
KME1 150321Z 10001KT 21/17 A2996 RMK A01 T02130168  RH  075%=      5-min Rain = 0
KME1 150322Z 16002KT 21/17 A2996 RMK A01 T02130167  RH  075%=      5-min Rain = 0
KME1 150323Z 17003KT 21/17 A2996 RMK A01 T02130168  RH  076%=      5-min Rain = 0
KME1 150324Z 19003KT 21/17 A2996 RMK A01 T02120168  RH  076%=      5-min Rain = 0
KME1 150325Z 21002KT 21/17 A2996 RMK A01 T02120168  RH  076%=      5-min Rain = 0
KME1 150326Z 25002KT 21/17 A2996 RMK A01 T02120168  RH  076%=      5-min Rain = 0
KME1 150327Z 09001KT 21/17 A2996 RMK A01 T02120167  RH  076%=      5-min Rain = 0
KME1 150328Z 09004KT 21/17 A2996 RMK A01 T02120168  RH  076%=      5-min Rain = 0
KME1 150329Z 07005KT 21/17 A2997 RMK A01 T02120168  RH  076%=      5-min Rain = 0
KME1 150330Z 08007KT 21/17 A2997 RMK A01 T02110169  RH  077%=      5-min Rain = 0
KME1 150331Z 09007KT 21/17 A2997 RMK A01 T02100170  RH  078%=      5-min Rain = 0
KME1 150332Z 11007KT 21/17 A2997 RMK A01 T02090169  RH  078%=      5-min Rain = 0
KME1 150333Z 11008KT 21/17 A2997 RMK A01 T02090169  RH  078%=      5-min Rain = 0
KME1 150334Z 12005KT 21/17 A2997 RMK A01 T02090168  RH  078%=      5-min Rain = 0
KME1 150335Z 13007KT 21/17 A2997 RMK A01 T02090168  RH  077%=      5-min Rain = 0
KME1 150336Z 12005KT 21/17 A2997 RMK A01 T02090168  RH  077%=      5-min Rain = 0
KME1 150337Z 11005KT 21/17 A2997 RMK A01 T02090168  RH  077%=      5-min Rain = 0
KME1 150338Z 11007KT 21/17 A2997 RMK A01 T02090168  RH  077%=      5-min Rain = 0
KME1 150339Z 11006KT 21/17 A2997 RMK A01 T02090168  RH  077%=      5-min Rain = 0
KME1 150340Z 12007KT 21/17 A2998 RMK A01 T02090168  RH  077%=      5-min Rain = 0
KME1 150341Z 11007KT 21/17 A2998 RMK A01 T02090168  RH  077%=      5-min Rain = 0
KME1 150342Z 11008KT 21/17 A2998 RMK A01 T02100168  RH  077%=      5-min Rain = 0
KME1 150343Z 10006KT 21/17 A2998 RMK A01 T02100168  RH  077%=      5-min Rain = 0
KME1 150344Z 10009G15KT 21/17 A2998 RMK A01 T02100168  RH  077%=      5-min Rain = 0
KME1 150345Z 09008KT 21/17 A2998 RMK A01 T02100168  RH  077%=      5-min Rain = 0
KME1 150346Z 09008KT 21/17 A2998 RMK A01 T02100168  RH  077%=      5-min Rain = 0
KME1 150347Z 10007KT 21/17 A2998 RMK A01 T02100169  RH  077%=      5-min Rain = 0
KME1 150348Z 09009KT 21/17 A2998 RMK A01 T02090168  RH  078%=      5-min Rain = 0
KME1 150349Z 10008KT 21/17 A2998 RMK A01 T02080169  RH  078%=      5-min Rain = 0
KME1 150350Z 10010KT 21/17 A2998 RMK A01 T02080169  RH  078%=      5-min Rain = 0
KME1 150351Z 11009KT 21/17 A2998 RMK A01 T02070170  RH  079%=      5-min Rain = 0
KME1 150352Z 11008KT 21/17 A2998 RMK A01 T02070170  RH  079%=      5-min Rain = 0
KME1 150353Z 11008KT 21/17 A2998 RMK A01 T02060170  RH  080%=      5-min Rain = 0
KME1 150354Z 10006KT 21/17 A2998 RMK A01 T02050170  RH  080%=      5-min Rain = 0
KME1 150355Z 09009G14KT 21/17 A2998 RMK A01 T02050170  RH  080%=      5-min Rain = 0
KME1 150356Z 10008KT 20/17 A2998 RMK A01 T02040170  RH  081%=      5-min Rain = 0
KME1 150357Z 10005KT 20/17 A2998 RMK A01 T02040170  RH  081%=      5-min Rain = 0
KME1 150358Z 10007KT 20/17 A2998 RMK A01 T02030170  RH  082%=      5-min Rain = 0
KME1 150359Z 11007KT 20/17 A2998 RMK A01 T02020170  RH  082%=      5-min Rain = 0
KME1 150400Z 09006KT 20/17 A2998 RMK A01 T02020170  RH  082%=      5-min Rain = 0
KME1 150401Z 09007KT 20/17 A2998 RMK A01 T02010170  RH  082%=      5-min Rain = 0
KME1 150402Z 09009KT 20/17 A2998 RMK A01 T02010171  RH  083%=      5-min Rain = 0
KME1 150403Z 09007KT 20/17 A2998 RMK A01 T02000171  RH  083%=      5-min Rain = 0
KME1 150404Z 09006KT 20/17 A2999 RMK A01 T02000170  RH  083%=      5-min Rain = 0
KME1 150405Z 09006KT 20/17 A2999 RMK A01 T01990171  RH  083%=      5-min Rain = 0
KME1 150406Z 08008KT 20/17 A2998 RMK A01 T01990171  RH  084%=      5-min Rain = 0
KME1 150407Z 09008KT 20/17 A2998 RMK A01 T01980171  RH  084%=      5-min Rain = 0
KME1 150408Z 08007KT 20/17 A2998 RMK A01 T01980171  RH  084%=      5-min Rain = 0
KME1 150409Z 09006KT 20/17 A2998 RMK A01 T01980171  RH  084%=      5-min Rain = 0
KME1 150410Z 10003KT 20/17 A2998 RMK A01 T01970171  RH  085%=      5-min Rain = 0
KME1 150411Z 10005KT 20/17 A2999 RMK A01 T01970171  RH  085%=      5-min Rain = 0
KME1 150412Z 10005KT 20/17 A2998 RMK A01 T01970171  RH  085%=      5-min Rain = 0
KME1 150413Z 12005KT 20/17 A2998 RMK A01 T01970171  RH  085%=      5-min Rain = 0
KME1 150414Z 14006KT 20/17 A2998 RMK A01 T01970171  RH  085%=      5-min Rain = 0
KME1 150415Z 13006KT 20/17 A2998 RMK A01 T01970171  RH  085%=      5-min Rain = 0
KME1 150416Z 13006KT 20/17 A2998 RMK A01 T01970170  RH  085%=      5-min Rain = 0
KME1 150417Z 12006KT 20/17 A2998 RMK A01 T01970170  RH  084%=      5-min Rain = 0
KME1 150418Z 13006KT 20/17 A2998 RMK A01 T01970170  RH  084%=      5-min Rain = 0
KME1 150419Z 11005KT 20/17 A2998 RMK A01 T01970169  RH  084%=      5-min Rain = 0
KME1 150420Z 12006KT 20/17 A2998 RMK A01 T01970169  RH  083%=      5-min Rain = 0
KME1 150421Z 12006KT 20/17 A2999 RMK A01 T01970168  RH  083%=      5-min Rain = 0
KME1 150422Z 12006KT 20/17 A2999 RMK A01 T01970167  RH  083%=      5-min Rain = 0
KME1 150423Z 12005KT 20/17 A2999 RMK A01 T01980167  RH  082%=      5-min Rain = 0
KME1 150424Z 12004KT 20/17 A2999 RMK A01 T01980167  RH  082%=      5-min Rain = 0
KME1 150425Z 12003KT 20/17 A2999 RMK A01 T01980166  RH  082%=      5-min Rain = 0
KME1 150426Z 14005KT 20/17 A2999 RMK A01 T01980166  RH  082%=      5-min Rain = 0
KME1 150427Z 13005KT 20/17 A2999 RMK A01 T01980165  RH  081%=      5-min Rain = 0
KME1 150428Z 14005KT 20/17 A2999 RMK A01 T01980165  RH  081%=      5-min Rain = 0
KME1 150429Z 14005G10KT 20/16 A2999 RMK A01 T01980164  RH  081%=      5-min Rain = 0
KME1 150430Z 13006KT 20/16 A2999 RMK A01 T01980163  RH  080%=      5-min Rain = 0
KME1 150431Z 14004KT 20/16 A2999 RMK A01 T01980162  RH  080%=      5-min Rain = 0
KME1 150432Z 13005KT 20/16 A2999 RMK A01 T01980161  RH  079%=      5-min Rain = 0
KME1 150433Z 12007KT 20/16 A2999 RMK A01 T01990161  RH  079%=      5-min Rain = 0
KME1 150434Z 12006KT 20/16 A2999 RMK A01 T01980159  RH  078%=      5-min Rain = 0
KME1 150435Z 15005KT 20/16 A2999 RMK A01 T01990159  RH  078%=      5-min Rain = 0
KME1 150436Z 14007KT 20/16 A2999 RMK A01 T01990159  RH  078%=      5-min Rain = 0
KME1 150437Z 13004KT 20/16 A2999 RMK A01 T01990159  RH  078%=      5-min Rain = 0
KME1 150438Z 15005KT 20/16 A2999 RMK A01 T01990159  RH  078%=      5-min Rain = 0
KME1 150439Z 14007KT 20/16 A2999 RMK A01 T01990158  RH  078%=      5-min Rain = 0
KME1 150440Z 14006KT 20/16 A2999 RMK A01 T01990158  RH  077%=      5-min Rain = 0
KME1 150441Z 14004KT 20/16 A2998 RMK A01 T01990157  RH  077%=      5-min Rain = 0
KME1 150442Z 14004KT 20/16 A2998 RMK A01 T01980157  RH  077%=      5-min Rain = 0
KME1 150443Z 13003KT 20/16 A2998 RMK A01 T01980156  RH  076%=      5-min Rain = 0
KME1 150444Z 15007KT 20/16 A2998 RMK A01 T01980155  RH  076%=      5-min Rain = 0
KME1 150445Z 15008KT 20/15 A2998 RMK A01 T01980153  RH  075%=      5-min Rain = 0
KME1 150446Z 15006KT 20/15 A2998 RMK A01 T01980152  RH  074%=      5-min Rain = 0
KME1 150447Z 15006KT 20/15 A2998 RMK A01 T01990151  RH  074%=      5-min Rain = 0
KME1 150448Z 14004KT 20/15 A2998 RMK A01 T01990150  RH  074%=      5-min Rain = 0
KME1 150449Z 15007KT 20/15 A2998 RMK A01 T01990150  RH  073%=      5-min Rain = 0
KME1 150450Z 15006KT 20/15 A2998 RMK A01 T01990150  RH  073%=      5-min Rain = 0
KME1 150451Z 15005KT 20/15 A2998 RMK A01 T01990150  RH  073%=      5-min Rain = 0
KME1 150452Z 15007KT 20/15 A2998 RMK A01 T01990149  RH  073%=      5-min Rain = 0
KME1 150453Z 15007KT 20/15 A2998 RMK A01 T01990149  RH  073%=      5-min Rain = 0
KME1 150454Z 15007KT 20/15 A2998 RMK A01 T02000148  RH  072%=      5-min Rain = 0
KME1 150455Z 14008KT 20/15 A2998 RMK A01 T02000148  RH  072%=      5-min Rain = 0
KME1 150456Z 15008KT 20/15 A2998 RMK A01 T02000147  RH  072%=      5-min Rain = 0
KME1 150457Z 16007KT 20/15 A2999 RMK A01 T02000147  RH  072%=      5-min Rain = 0
KME1 150458Z 15005KT 20/15 A2999 RMK A01 T02000147  RH  071%=      5-min Rain = 0
KME1 150459Z 15006KT 20/15 A2999 RMK A01 T02000147  RH  071%=      5-min Rain = 0

Page generated in 0.0722 seconds.